<?xml version="1.0" encoding="UTF-8" standalone="no" ?>
<gpx xmlns="http://www.topografix.com/GPX/1/1" xmlns:xsi="http://www.w3.org/2001/XMLSchema-instance" xsi:schemaLocation="http://www.topografix.com/GPX/1/1 http://www.topografix.com/GPX/1/1/gpx.xsd" version="1.1" creator="VisuGPX - https://www.visugpx.com">
  <metadata>
    <name>Lesches en Diois montagne du Puy</name>
    <desc><![CDATA[File with points/tracks from Locus Map/3.24.3]]></desc>
  </metadata>
  <trk>
    <name><![CDATA[F26310 Lesches en Diois montagne du Puy]]></name>
    <trkseg>
      <trkpt lat="44.59741" lon="5.52691">
        <ele>1082.02</ele>
        <time>2017-07-10T07:03:27.000Z</time>
      </trkpt>
      <trkpt lat="44.59751" lon="5.52683">
        <ele>1070.21</ele>
        <time>2017-07-10T07:03:37.000Z</time>
      </trkpt>
      <trkpt lat="44.59751" lon="5.5267">
        <ele>1067.98</ele>
        <time>2017-07-10T07:04:14.000Z</time>
      </trkpt>
      <trkpt lat="44.59744" lon="5.52679">
        <ele>1072.94</ele>
        <time>2017-07-10T07:04:25.000Z</time>
      </trkpt>
      <trkpt lat="44.59733" lon="5.52674">
        <ele>1081.14</ele>
        <time>2017-07-10T07:04:35.000Z</time>
      </trkpt>
      <trkpt lat="44.59736" lon="5.52661">
        <ele>1076.25</ele>
        <time>2017-07-10T07:04:45.000Z</time>
      </trkpt>
      <trkpt lat="44.5974" lon="5.52648">
        <ele>1078.39</ele>
        <time>2017-07-10T07:05:28.000Z</time>
      </trkpt>
      <trkpt lat="44.59748" lon="5.52634">
        <ele>1076.22</ele>
        <time>2017-07-10T07:05:38.098Z</time>
      </trkpt>
      <trkpt lat="44.59756" lon="5.52626">
        <ele>1073.02</ele>
        <time>2017-07-10T07:05:49.000Z</time>
      </trkpt>
      <trkpt lat="44.59761" lon="5.52613">
        <ele>1067.31</ele>
        <time>2017-07-10T07:05:59.000Z</time>
      </trkpt>
      <trkpt lat="44.5977" lon="5.52606">
        <ele>1062.02</ele>
        <time>2017-07-10T07:06:09.000Z</time>
      </trkpt>
      <trkpt lat="44.59775" lon="5.52589">
        <ele>1067</ele>
        <time>2017-07-10T07:06:19.000Z</time>
      </trkpt>
      <trkpt lat="44.59778" lon="5.52576">
        <ele>1066.01</ele>
        <time>2017-07-10T07:06:30.000Z</time>
      </trkpt>
      <trkpt lat="44.5978" lon="5.52562">
        <ele>1063.8</ele>
        <time>2017-07-10T07:06:45.000Z</time>
      </trkpt>
      <trkpt lat="44.59787" lon="5.5255">
        <ele>1067.49</ele>
        <time>2017-07-10T07:06:55.000Z</time>
      </trkpt>
      <trkpt lat="44.59791" lon="5.52537">
        <ele>1068.7</ele>
        <time>2017-07-10T07:07:07.000Z</time>
      </trkpt>
      <trkpt lat="44.59799" lon="5.5253">
        <ele>1067.06</ele>
        <time>2017-07-10T07:07:19.000Z</time>
      </trkpt>
      <trkpt lat="44.59804" lon="5.52519">
        <ele>1071.73</ele>
        <time>2017-07-10T07:07:29.000Z</time>
      </trkpt>
      <trkpt lat="44.59816" lon="5.52521">
        <ele>1072.93</ele>
        <time>2017-07-10T07:07:39.000Z</time>
      </trkpt>
      <trkpt lat="44.59825" lon="5.52523">
        <ele>1071.02</ele>
        <time>2017-07-10T07:07:51.000Z</time>
      </trkpt>
      <trkpt lat="44.59834" lon="5.52519">
        <ele>1071.02</ele>
        <time>2017-07-10T07:08:01.000Z</time>
      </trkpt>
      <trkpt lat="44.59842" lon="5.52527">
        <ele>1070.28</ele>
        <time>2017-07-10T07:08:12.000Z</time>
      </trkpt>
      <trkpt lat="44.59854" lon="5.52525">
        <ele>1070.82</ele>
        <time>2017-07-10T07:08:22.000Z</time>
      </trkpt>
      <trkpt lat="44.59863" lon="5.52525">
        <ele>1075.93</ele>
        <time>2017-07-10T07:08:36.000Z</time>
      </trkpt>
      <trkpt lat="44.59869" lon="5.5254">
        <ele>1075.07</ele>
        <time>2017-07-10T07:08:46.000Z</time>
      </trkpt>
      <trkpt lat="44.59878" lon="5.52558">
        <ele>1079.24</ele>
        <time>2017-07-10T07:08:56.000Z</time>
      </trkpt>
      <trkpt lat="44.5989" lon="5.52569">
        <ele>1084</ele>
        <time>2017-07-10T07:09:15.000Z</time>
      </trkpt>
      <trkpt lat="44.59898" lon="5.52574">
        <ele>1081.27</ele>
        <time>2017-07-10T07:09:28.000Z</time>
      </trkpt>
      <trkpt lat="44.59905" lon="5.52585">
        <ele>1077.95</ele>
        <time>2017-07-10T07:09:39.000Z</time>
      </trkpt>
      <trkpt lat="44.59923" lon="5.52569">
        <ele>1077.87</ele>
        <time>2017-07-10T07:09:49.000Z</time>
      </trkpt>
      <trkpt lat="44.59931" lon="5.52561">
        <ele>1075.97</ele>
        <time>2017-07-10T07:10:03.000Z</time>
      </trkpt>
      <trkpt lat="44.59934" lon="5.52548">
        <ele>1080.21</ele>
        <time>2017-07-10T07:10:40.000Z</time>
      </trkpt>
      <trkpt lat="44.59943" lon="5.52535">
        <ele>1086.69</ele>
        <time>2017-07-10T07:10:50.000Z</time>
      </trkpt>
      <trkpt lat="44.59944" lon="5.52514">
        <ele>1090.61</ele>
        <time>2017-07-10T07:11:00.000Z</time>
      </trkpt>
      <trkpt lat="44.59954" lon="5.52511">
        <ele>1086.29</ele>
        <time>2017-07-10T07:11:16.000Z</time>
      </trkpt>
      <trkpt lat="44.59956" lon="5.52492">
        <ele>1090.73</ele>
        <time>2017-07-10T07:11:26.000Z</time>
      </trkpt>
      <trkpt lat="44.59964" lon="5.52487">
        <ele>1087</ele>
        <time>2017-07-10T07:11:38.000Z</time>
      </trkpt>
      <trkpt lat="44.5997" lon="5.52474">
        <ele>1087.25</ele>
        <time>2017-07-10T07:11:48.000Z</time>
      </trkpt>
      <trkpt lat="44.59974" lon="5.52461">
        <ele>1089.5</ele>
        <time>2017-07-10T07:12:00.000Z</time>
      </trkpt>
      <trkpt lat="44.59983" lon="5.52463">
        <ele>1095.25</ele>
        <time>2017-07-10T07:12:16.000Z</time>
      </trkpt>
      <trkpt lat="44.59986" lon="5.52446">
        <ele>1093.8</ele>
        <time>2017-07-10T07:12:26.000Z</time>
      </trkpt>
      <trkpt lat="44.59994" lon="5.52436">
        <ele>1096.7</ele>
        <time>2017-07-10T07:12:43.000Z</time>
      </trkpt>
      <trkpt lat="44.60004" lon="5.52438">
        <ele>1096.5</ele>
        <time>2017-07-10T07:12:55.000Z</time>
      </trkpt>
      <trkpt lat="44.6001" lon="5.52427">
        <ele>1097.18</ele>
        <time>2017-07-10T07:13:07.000Z</time>
      </trkpt>
      <trkpt lat="44.60016" lon="5.52414">
        <ele>1098.44</ele>
        <time>2017-07-10T07:13:17.000Z</time>
      </trkpt>
      <trkpt lat="44.60023" lon="5.52405">
        <ele>1098.82</ele>
        <time>2017-07-10T07:13:31.000Z</time>
      </trkpt>
      <trkpt lat="44.60032" lon="5.52406">
        <ele>1100.19</ele>
        <time>2017-07-10T07:13:42.000Z</time>
      </trkpt>
      <trkpt lat="44.60036" lon="5.52394">
        <ele>1101.02</ele>
        <time>2017-07-10T07:14:01.000Z</time>
      </trkpt>
      <trkpt lat="44.60044" lon="5.52386">
        <ele>1100.77</ele>
        <time>2017-07-10T07:14:12.000Z</time>
      </trkpt>
      <trkpt lat="44.60052" lon="5.52376">
        <ele>1104.25</ele>
        <time>2017-07-10T07:14:38.000Z</time>
      </trkpt>
      <trkpt lat="44.6006" lon="5.52365">
        <ele>1100.02</ele>
        <time>2017-07-10T07:14:48.000Z</time>
      </trkpt>
      <trkpt lat="44.6007" lon="5.52364">
        <ele>1103.06</ele>
        <time>2017-07-10T07:14:58.000Z</time>
      </trkpt>
      <trkpt lat="44.60079" lon="5.52361">
        <ele>1106.2</ele>
        <time>2017-07-10T07:15:12.000Z</time>
      </trkpt>
      <trkpt lat="44.60086" lon="5.52353">
        <ele>1104.75</ele>
        <time>2017-07-10T07:15:26.000Z</time>
      </trkpt>
      <trkpt lat="44.60086" lon="5.52337">
        <ele>1109.75</ele>
        <time>2017-07-10T07:15:45.000Z</time>
      </trkpt>
      <trkpt lat="44.6009" lon="5.52325">
        <ele>1116</ele>
        <time>2017-07-10T07:16:07.000Z</time>
      </trkpt>
      <trkpt lat="44.601" lon="5.52325">
        <ele>1115.5</ele>
        <time>2017-07-10T07:16:20.000Z</time>
      </trkpt>
      <trkpt lat="44.60106" lon="5.52312">
        <ele>1114.25</ele>
        <time>2017-07-10T07:16:39.000Z</time>
      </trkpt>
      <trkpt lat="44.60121" lon="5.52308">
        <ele>1108.26</ele>
        <time>2017-07-10T07:16:49.000Z</time>
      </trkpt>
      <trkpt lat="44.60114" lon="5.52298">
        <ele>1113</ele>
        <time>2017-07-10T07:17:04.000Z</time>
      </trkpt>
      <trkpt lat="44.60121" lon="5.52286">
        <ele>1118.55</ele>
        <time>2017-07-10T07:18:50.000Z</time>
      </trkpt>
      <trkpt lat="44.60131" lon="5.52287">
        <ele>1122.67</ele>
        <time>2017-07-10T07:19:00.000Z</time>
      </trkpt>
      <trkpt lat="44.60137" lon="5.52278">
        <ele>1123.67</ele>
        <time>2017-07-10T07:21:49.000Z</time>
      </trkpt>
      <trkpt lat="44.60147" lon="5.52257">
        <ele>1125.62</ele>
        <time>2017-07-10T07:21:59.000Z</time>
      </trkpt>
      <trkpt lat="44.60155" lon="5.52242">
        <ele>1128.94</ele>
        <time>2017-07-10T07:22:09.000Z</time>
      </trkpt>
      <trkpt lat="44.60161" lon="5.52231">
        <ele>1135.91</ele>
        <time>2017-07-10T07:22:22.000Z</time>
      </trkpt>
      <trkpt lat="44.60163" lon="5.52218">
        <ele>1141</ele>
        <time>2017-07-10T07:22:35.000Z</time>
      </trkpt>
      <trkpt lat="44.60172" lon="5.52212">
        <ele>1146.69</ele>
        <time>2017-07-10T07:22:55.000Z</time>
      </trkpt>
      <trkpt lat="44.60181" lon="5.52212">
        <ele>1134</ele>
        <time>2017-07-10T07:24:20.000Z</time>
      </trkpt>
      <trkpt lat="44.60197" lon="5.52204">
        <ele>1143.93</ele>
        <time>2017-07-10T07:24:30.000Z</time>
      </trkpt>
      <trkpt lat="44.60206" lon="5.52191">
        <ele>1144.31</ele>
        <time>2017-07-10T07:26:31.000Z</time>
      </trkpt>
      <trkpt lat="44.60224" lon="5.52177">
        <ele>1134.81</ele>
        <time>2017-07-10T07:26:41.000Z</time>
      </trkpt>
      <trkpt lat="44.60232" lon="5.52156">
        <ele>1143.36</ele>
        <time>2017-07-10T07:26:51.000Z</time>
      </trkpt>
      <trkpt lat="44.6024" lon="5.52151">
        <ele>1149.67</ele>
        <time>2017-07-10T07:27:02.000Z</time>
      </trkpt>
      <trkpt lat="44.6025" lon="5.52144">
        <ele>1156.54</ele>
        <time>2017-07-10T07:27:12.000Z</time>
      </trkpt>
      <trkpt lat="44.60257" lon="5.52129">
        <ele>1164.5</ele>
        <time>2017-07-10T07:28:28.000Z</time>
      </trkpt>
      <trkpt lat="44.6027" lon="5.52112">
        <ele>1168.68</ele>
        <time>2017-07-10T07:28:38.000Z</time>
      </trkpt>
      <trkpt lat="44.60278" lon="5.52101">
        <ele>1173.12</ele>
        <time>2017-07-10T07:29:58.000Z</time>
      </trkpt>
      <trkpt lat="44.60292" lon="5.52081">
        <ele>1167.01</ele>
        <time>2017-07-10T07:30:08.000Z</time>
      </trkpt>
      <trkpt lat="44.60299" lon="5.52058">
        <ele>1171.97</ele>
        <time>2017-07-10T07:30:18.000Z</time>
      </trkpt>
      <trkpt lat="44.60307" lon="5.52051">
        <ele>1175.75</ele>
        <time>2017-07-10T07:30:28.000Z</time>
      </trkpt>
      <trkpt lat="44.60311" lon="5.52038">
        <ele>1179.5</ele>
        <time>2017-07-10T07:31:29.101Z</time>
      </trkpt>
      <trkpt lat="44.60316" lon="5.52004">
        <ele>1179.73</ele>
        <time>2017-07-10T07:31:39.000Z</time>
      </trkpt>
      <trkpt lat="44.60323" lon="5.51996">
        <ele>1183.93</ele>
        <time>2017-07-10T07:31:49.000Z</time>
      </trkpt>
      <trkpt lat="44.60332" lon="5.5199">
        <ele>1189.73</ele>
        <time>2017-07-10T07:32:02.000Z</time>
      </trkpt>
      <trkpt lat="44.60333" lon="5.52006">
        <ele>1200.37</ele>
        <time>2017-07-10T07:36:17.000Z</time>
      </trkpt>
      <trkpt lat="44.60335" lon="5.52037">
        <ele>1208.65</ele>
        <time>2017-07-10T07:36:27.000Z</time>
      </trkpt>
      <trkpt lat="44.60346" lon="5.52063">
        <ele>1206.82</ele>
        <time>2017-07-10T07:36:37.000Z</time>
      </trkpt>
      <trkpt lat="44.60349" lon="5.52083">
        <ele>1207.48</ele>
        <time>2017-07-10T07:36:47.000Z</time>
      </trkpt>
      <trkpt lat="44.60336" lon="5.52095">
        <ele>1233.37</ele>
        <time>2017-07-10T07:36:57.000Z</time>
      </trkpt>
      <trkpt lat="44.60338" lon="5.52108">
        <ele>1238</ele>
        <time>2017-07-10T07:37:18.000Z</time>
      </trkpt>
      <trkpt lat="44.60342" lon="5.52119">
        <ele>1244.31</ele>
        <time>2017-07-10T07:38:22.000Z</time>
      </trkpt>
      <trkpt lat="44.60347" lon="5.52132">
        <ele>1245.75</ele>
        <time>2017-07-10T07:38:32.000Z</time>
      </trkpt>
      <trkpt lat="44.6035" lon="5.52146">
        <ele>1242.38</ele>
        <time>2017-07-10T07:39:03.000Z</time>
      </trkpt>
      <trkpt lat="44.60349" lon="5.52159">
        <ele>1249.69</ele>
        <time>2017-07-10T07:39:34.000Z</time>
      </trkpt>
      <trkpt lat="44.60354" lon="5.52171">
        <ele>1256.99</ele>
        <time>2017-07-10T07:39:44.000Z</time>
      </trkpt>
      <trkpt lat="44.60352" lon="5.52184">
        <ele>1262.88</ele>
        <time>2017-07-10T07:40:19.000Z</time>
      </trkpt>
      <trkpt lat="44.60353" lon="5.52199">
        <ele>1270.68</ele>
        <time>2017-07-10T07:40:29.000Z</time>
      </trkpt>
      <trkpt lat="44.60359" lon="5.5221">
        <ele>1269.06</ele>
        <time>2017-07-10T07:40:46.000Z</time>
      </trkpt>
      <trkpt lat="44.60362" lon="5.52225">
        <ele>1269.22</ele>
        <time>2017-07-10T07:40:56.000Z</time>
      </trkpt>
      <trkpt lat="44.60367" lon="5.52237">
        <ele>1268</ele>
        <time>2017-07-10T07:41:07.000Z</time>
      </trkpt>
      <trkpt lat="44.60364" lon="5.5225">
        <ele>1275.5</ele>
        <time>2017-07-10T07:41:19.000Z</time>
      </trkpt>
      <trkpt lat="44.60366" lon="5.52262">
        <ele>1277.98</ele>
        <time>2017-07-10T07:41:34.000Z</time>
      </trkpt>
      <trkpt lat="44.60371" lon="5.52273">
        <ele>1274.75</ele>
        <time>2017-07-10T07:41:50.000Z</time>
      </trkpt>
      <trkpt lat="44.60372" lon="5.52287">
        <ele>1273.81</ele>
        <time>2017-07-10T07:42:07.000Z</time>
      </trkpt>
      <trkpt lat="44.60377" lon="5.523">
        <ele>1281</ele>
        <time>2017-07-10T07:42:24.000Z</time>
      </trkpt>
      <trkpt lat="44.60382" lon="5.52318">
        <ele>1277.25</ele>
        <time>2017-07-10T07:43:24.000Z</time>
      </trkpt>
      <trkpt lat="44.60382" lon="5.52337">
        <ele>1282.46</ele>
        <time>2017-07-10T07:43:34.000Z</time>
      </trkpt>
      <trkpt lat="44.60383" lon="5.52351">
        <ele>1286.16</ele>
        <time>2017-07-10T07:43:50.000Z</time>
      </trkpt>
      <trkpt lat="44.60387" lon="5.52362">
        <ele>1285.75</ele>
        <time>2017-07-10T07:44:09.000Z</time>
      </trkpt>
      <trkpt lat="44.60392" lon="5.52373">
        <ele>1291.92</ele>
        <time>2017-07-10T07:44:22.000Z</time>
      </trkpt>
      <trkpt lat="44.60388" lon="5.52388">
        <ele>1290.22</ele>
        <time>2017-07-10T07:44:34.000Z</time>
      </trkpt>
      <trkpt lat="44.60394" lon="5.52399">
        <ele>1298.06</ele>
        <time>2017-07-10T07:45:19.000Z</time>
      </trkpt>
      <trkpt lat="44.60389" lon="5.5241">
        <ele>1299.69</ele>
        <time>2017-07-10T07:45:45.000Z</time>
      </trkpt>
      <trkpt lat="44.60396" lon="5.52419">
        <ele>1300.19</ele>
        <time>2017-07-10T07:45:55.000Z</time>
      </trkpt>
      <trkpt lat="44.60396" lon="5.52432">
        <ele>1302.19</ele>
        <time>2017-07-10T07:46:56.000Z</time>
      </trkpt>
      <trkpt lat="44.604" lon="5.52451">
        <ele>1303.42</ele>
        <time>2017-07-10T07:47:06.000Z</time>
      </trkpt>
      <trkpt lat="44.60405" lon="5.52464">
        <ele>1302.5</ele>
        <time>2017-07-10T07:47:16.000Z</time>
      </trkpt>
      <trkpt lat="44.60409" lon="5.52476">
        <ele>1302.98</ele>
        <time>2017-07-10T07:47:31.000Z</time>
      </trkpt>
      <trkpt lat="44.60417" lon="5.52483">
        <ele>1301.94</ele>
        <time>2017-07-10T07:47:41.000Z</time>
      </trkpt>
      <trkpt lat="44.60423" lon="5.52493">
        <ele>1299</ele>
        <time>2017-07-10T07:51:50.000Z</time>
      </trkpt>
      <trkpt lat="44.60433" lon="5.52505">
        <ele>1295.24</ele>
        <time>2017-07-10T07:53:28.000Z</time>
      </trkpt>
      <trkpt lat="44.6043" lon="5.52517">
        <ele>1297</ele>
        <time>2017-07-10T07:54:08.000Z</time>
      </trkpt>
      <trkpt lat="44.60435" lon="5.52533">
        <ele>1296.16</ele>
        <time>2017-07-10T07:54:30.000Z</time>
      </trkpt>
      <trkpt lat="44.60439" lon="5.52548">
        <ele>1299.75</ele>
        <time>2017-07-10T07:55:46.000Z</time>
      </trkpt>
      <trkpt lat="44.60443" lon="5.52565">
        <ele>1307.68</ele>
        <time>2017-07-10T07:55:56.000Z</time>
      </trkpt>
      <trkpt lat="44.60447" lon="5.52578">
        <ele>1316.23</ele>
        <time>2017-07-10T07:56:10.000Z</time>
      </trkpt>
      <trkpt lat="44.6045" lon="5.52591">
        <ele>1318.95</ele>
        <time>2017-07-10T07:57:13.000Z</time>
      </trkpt>
      <trkpt lat="44.60455" lon="5.52602">
        <ele>1322.08</ele>
        <time>2017-07-10T08:04:12.000Z</time>
      </trkpt>
      <trkpt lat="44.60462" lon="5.5261">
        <ele>1323.06</ele>
        <time>2017-07-10T08:04:34.000Z</time>
      </trkpt>
      <trkpt lat="44.60463" lon="5.52623">
        <ele>1324.03</ele>
        <time>2017-07-10T08:04:45.000Z</time>
      </trkpt>
      <trkpt lat="44.60466" lon="5.52636">
        <ele>1332.25</ele>
        <time>2017-07-10T08:06:59.000Z</time>
      </trkpt>
      <trkpt lat="44.60469" lon="5.52652">
        <ele>1332.17</ele>
        <time>2017-07-10T08:07:09.000Z</time>
      </trkpt>
      <trkpt lat="44.60478" lon="5.5266">
        <ele>1331</ele>
        <time>2017-07-10T08:09:01.000Z</time>
      </trkpt>
      <trkpt lat="44.60481" lon="5.52672">
        <ele>1337.25</ele>
        <time>2017-07-10T08:09:49.000Z</time>
      </trkpt>
      <trkpt lat="44.6048" lon="5.52689">
        <ele>1339</ele>
        <time>2017-07-10T08:09:59.000Z</time>
      </trkpt>
      <trkpt lat="44.60491" lon="5.52703">
        <ele>1337.56</ele>
        <time>2017-07-10T08:10:55.000Z</time>
      </trkpt>
      <trkpt lat="44.60491" lon="5.52716">
        <ele>1342.07</ele>
        <time>2017-07-10T08:11:06.000Z</time>
      </trkpt>
      <trkpt lat="44.60491" lon="5.52729">
        <ele>1345</ele>
        <time>2017-07-10T08:11:16.000Z</time>
      </trkpt>
      <trkpt lat="44.60493" lon="5.52757">
        <ele>1355.25</ele>
        <time>2017-07-10T08:14:16.000Z</time>
      </trkpt>
      <trkpt lat="44.60498" lon="5.52768">
        <ele>1360.25</ele>
        <time>2017-07-10T08:14:56.000Z</time>
      </trkpt>
      <trkpt lat="44.60498" lon="5.52785">
        <ele>1360.64</ele>
        <time>2017-07-10T08:15:06.000Z</time>
      </trkpt>
      <trkpt lat="44.60501" lon="5.52798">
        <ele>1363.8</ele>
        <time>2017-07-10T08:15:18.000Z</time>
      </trkpt>
      <trkpt lat="44.60497" lon="5.52781">
        <ele>1363.96</ele>
        <time>2017-07-10T08:15:28.000Z</time>
      </trkpt>
      <trkpt lat="44.60502" lon="5.52792">
        <ele>1378.42</ele>
        <time>2017-07-10T08:19:44.000Z</time>
      </trkpt>
      <trkpt lat="44.60508" lon="5.52802">
        <ele>1382.97</ele>
        <time>2017-07-10T08:20:01.000Z</time>
      </trkpt>
      <trkpt lat="44.60515" lon="5.52811">
        <ele>1387.87</ele>
        <time>2017-07-10T08:20:23.000Z</time>
      </trkpt>
      <trkpt lat="44.60521" lon="5.5282">
        <ele>1394.36</ele>
        <time>2017-07-10T08:20:38.000Z</time>
      </trkpt>
      <trkpt lat="44.60526" lon="5.52832">
        <ele>1394</ele>
        <time>2017-07-10T08:22:33.000Z</time>
      </trkpt>
      <trkpt lat="44.60537" lon="5.52837">
        <ele>1396</ele>
        <time>2017-07-10T08:22:43.000Z</time>
      </trkpt>
      <trkpt lat="44.60544" lon="5.5285">
        <ele>1392.04</ele>
        <time>2017-07-10T08:22:58.000Z</time>
      </trkpt>
      <trkpt lat="44.60553" lon="5.52858">
        <ele>1391.08</ele>
        <time>2017-07-10T08:23:08.000Z</time>
      </trkpt>
      <trkpt lat="44.60543" lon="5.52869">
        <ele>1385.63</ele>
        <time>2017-07-10T08:23:26.000Z</time>
      </trkpt>
      <trkpt lat="44.60552" lon="5.52866">
        <ele>1388.7</ele>
        <time>2017-07-10T08:23:37.000Z</time>
      </trkpt>
      <trkpt lat="44.60557" lon="5.52877">
        <ele>1400.93</ele>
        <time>2017-07-10T08:24:31.000Z</time>
      </trkpt>
      <trkpt lat="44.60567" lon="5.52884">
        <ele>1402</ele>
        <time>2017-07-10T08:25:00.000Z</time>
      </trkpt>
      <trkpt lat="44.60566" lon="5.52898">
        <ele>1404.37</ele>
        <time>2017-07-10T08:25:19.000Z</time>
      </trkpt>
      <trkpt lat="44.60576" lon="5.52897">
        <ele>1408.21</ele>
        <time>2017-07-10T08:25:38.000Z</time>
      </trkpt>
      <trkpt lat="44.60577" lon="5.5291">
        <ele>1417.69</ele>
        <time>2017-07-10T08:27:29.000Z</time>
      </trkpt>
      <trkpt lat="44.60581" lon="5.52922">
        <ele>1423.95</ele>
        <time>2017-07-10T08:27:54.000Z</time>
      </trkpt>
      <trkpt lat="44.60588" lon="5.52932">
        <ele>1423.88</ele>
        <time>2017-07-10T08:28:14.000Z</time>
      </trkpt>
      <trkpt lat="44.60591" lon="5.52945">
        <ele>1427.88</ele>
        <time>2017-07-10T08:29:37.000Z</time>
      </trkpt>
      <trkpt lat="44.60595" lon="5.52961">
        <ele>1428.2</ele>
        <time>2017-07-10T08:29:47.000Z</time>
      </trkpt>
      <trkpt lat="44.60601" lon="5.52971">
        <ele>1434</ele>
        <time>2017-07-10T08:31:21.000Z</time>
      </trkpt>
      <trkpt lat="44.60601" lon="5.52988">
        <ele>1436.99</ele>
        <time>2017-07-10T08:31:31.000Z</time>
      </trkpt>
      <trkpt lat="44.60603" lon="5.53003">
        <ele>1437.55</ele>
        <time>2017-07-10T08:31:44.000Z</time>
      </trkpt>
      <trkpt lat="44.60608" lon="5.53015">
        <ele>1433.92</ele>
        <time>2017-07-10T08:31:58.000Z</time>
      </trkpt>
      <trkpt lat="44.60611" lon="5.53027">
        <ele>1441.29</ele>
        <time>2017-07-10T08:32:15.000Z</time>
      </trkpt>
      <trkpt lat="44.60617" lon="5.53037">
        <ele>1441.2</ele>
        <time>2017-07-10T08:32:33.000Z</time>
      </trkpt>
      <trkpt lat="44.6062" lon="5.53051">
        <ele>1446.17</ele>
        <time>2017-07-10T08:33:40.000Z</time>
      </trkpt>
      <trkpt lat="44.60625" lon="5.53062">
        <ele>1449.22</ele>
        <time>2017-07-10T08:33:58.000Z</time>
      </trkpt>
      <trkpt lat="44.60629" lon="5.53074">
        <ele>1450.11</ele>
        <time>2017-07-10T08:34:15.000Z</time>
      </trkpt>
      <trkpt lat="44.6063" lon="5.53086">
        <ele>1447.18</ele>
        <time>2017-07-10T08:34:43.000Z</time>
      </trkpt>
      <trkpt lat="44.60633" lon="5.53099">
        <ele>1451.75</ele>
        <time>2017-07-10T08:35:39.000Z</time>
      </trkpt>
      <trkpt lat="44.60637" lon="5.53111">
        <ele>1455.7</ele>
        <time>2017-07-10T08:35:51.000Z</time>
      </trkpt>
      <trkpt lat="44.6064" lon="5.53123">
        <ele>1463.7</ele>
        <time>2017-07-10T08:36:04.000Z</time>
      </trkpt>
      <trkpt lat="44.60643" lon="5.53136">
        <ele>1468.74</ele>
        <time>2017-07-10T08:36:20.000Z</time>
      </trkpt>
      <trkpt lat="44.60647" lon="5.53148">
        <ele>1468.82</ele>
        <time>2017-07-10T08:36:50.000Z</time>
      </trkpt>
      <trkpt lat="44.60652" lon="5.53159">
        <ele>1473.49</ele>
        <time>2017-07-10T08:38:00.000Z</time>
      </trkpt>
      <trkpt lat="44.60655" lon="5.53172">
        <ele>1476.25</ele>
        <time>2017-07-10T08:38:14.000Z</time>
      </trkpt>
      <trkpt lat="44.60659" lon="5.53184">
        <ele>1476.8</ele>
        <time>2017-07-10T08:38:30.000Z</time>
      </trkpt>
      <trkpt lat="44.60661" lon="5.53198">
        <ele>1477.93</ele>
        <time>2017-07-10T08:38:47.000Z</time>
      </trkpt>
      <trkpt lat="44.60664" lon="5.5321">
        <ele>1485.16</ele>
        <time>2017-07-10T08:39:07.000Z</time>
      </trkpt>
      <trkpt lat="44.60668" lon="5.53223">
        <ele>1481.05</ele>
        <time>2017-07-10T08:39:27.000Z</time>
      </trkpt>
      <trkpt lat="44.6067" lon="5.53235">
        <ele>1485.73</ele>
        <time>2017-07-10T08:39:38.000Z</time>
      </trkpt>
      <trkpt lat="44.60671" lon="5.53248">
        <ele>1488.25</ele>
        <time>2017-07-10T08:39:55.000Z</time>
      </trkpt>
      <trkpt lat="44.60674" lon="5.5326">
        <ele>1488.38</ele>
        <time>2017-07-10T08:40:09.000Z</time>
      </trkpt>
      <trkpt lat="44.60678" lon="5.53273">
        <ele>1488</ele>
        <time>2017-07-10T08:41:27.000Z</time>
      </trkpt>
      <trkpt lat="44.60687" lon="5.53283">
        <ele>1484.95</ele>
        <time>2017-07-10T08:41:50.000Z</time>
      </trkpt>
      <trkpt lat="44.60689" lon="5.53296">
        <ele>1497.94</ele>
        <time>2017-07-10T08:42:24.000Z</time>
      </trkpt>
      <trkpt lat="44.60689" lon="5.53309">
        <ele>1503.16</ele>
        <time>2017-07-10T08:42:34.000Z</time>
      </trkpt>
      <trkpt lat="44.60692" lon="5.53322">
        <ele>1502.03</ele>
        <time>2017-07-10T08:43:02.000Z</time>
      </trkpt>
      <trkpt lat="44.60696" lon="5.53333">
        <ele>1503.81</ele>
        <time>2017-07-10T08:43:41.000Z</time>
      </trkpt>
      <trkpt lat="44.60698" lon="5.53346">
        <ele>1505.82</ele>
        <time>2017-07-10T08:44:08.000Z</time>
      </trkpt>
      <trkpt lat="44.60704" lon="5.53363">
        <ele>1515.25</ele>
        <time>2017-07-10T08:45:22.000Z</time>
      </trkpt>
      <trkpt lat="44.60707" lon="5.53376">
        <ele>1519.94</ele>
        <time>2017-07-10T08:46:28.000Z</time>
      </trkpt>
      <trkpt lat="44.60711" lon="5.53389">
        <ele>1513.5</ele>
        <time>2017-07-10T08:46:42.000Z</time>
      </trkpt>
      <trkpt lat="44.60717" lon="5.53399">
        <ele>1514.34</ele>
        <time>2017-07-10T08:46:56.000Z</time>
      </trkpt>
      <trkpt lat="44.60722" lon="5.53411">
        <ele>1516.18</ele>
        <time>2017-07-10T08:47:12.000Z</time>
      </trkpt>
      <trkpt lat="44.60726" lon="5.53423">
        <ele>1515.94</ele>
        <time>2017-07-10T08:47:58.000Z</time>
      </trkpt>
      <trkpt lat="44.60732" lon="5.53439">
        <ele>1519.86</ele>
        <time>2017-07-10T08:48:08.000Z</time>
      </trkpt>
      <trkpt lat="44.60726" lon="5.53449">
        <ele>1518.25</ele>
        <time>2017-07-10T08:48:24.000Z</time>
      </trkpt>
      <trkpt lat="44.60732" lon="5.53458">
        <ele>1520.25</ele>
        <time>2017-07-10T08:48:56.000Z</time>
      </trkpt>
      <trkpt lat="44.60736" lon="5.53471">
        <ele>1518.27</ele>
        <time>2017-07-10T08:49:13.000Z</time>
      </trkpt>
      <trkpt lat="44.60743" lon="5.53479">
        <ele>1522.77</ele>
        <time>2017-07-10T08:49:26.000Z</time>
      </trkpt>
      <trkpt lat="44.60749" lon="5.53489">
        <ele>1526.97</ele>
        <time>2017-07-10T08:49:36.000Z</time>
      </trkpt>
      <trkpt lat="44.60748" lon="5.53502">
        <ele>1525.72</ele>
        <time>2017-07-10T08:49:53.000Z</time>
      </trkpt>
      <trkpt lat="44.60752" lon="5.53515">
        <ele>1535.06</ele>
        <time>2017-07-10T08:50:19.000Z</time>
      </trkpt>
      <trkpt lat="44.60753" lon="5.53528">
        <ele>1538.75</ele>
        <time>2017-07-10T08:50:51.000Z</time>
      </trkpt>
      <trkpt lat="44.6076" lon="5.53537">
        <ele>1539.25</ele>
        <time>2017-07-10T08:51:03.000Z</time>
      </trkpt>
      <trkpt lat="44.60761" lon="5.5355">
        <ele>1544.9</ele>
        <time>2017-07-10T08:51:15.000Z</time>
      </trkpt>
      <trkpt lat="44.60764" lon="5.53562">
        <ele>1542</ele>
        <time>2017-07-10T08:51:29.000Z</time>
      </trkpt>
      <trkpt lat="44.60766" lon="5.53575">
        <ele>1543.5</ele>
        <time>2017-07-10T08:52:31.000Z</time>
      </trkpt>
      <trkpt lat="44.6077" lon="5.53587">
        <ele>1544.31</ele>
        <time>2017-07-10T08:52:50.000Z</time>
      </trkpt>
      <trkpt lat="44.60771" lon="5.53601">
        <ele>1545.75</ele>
        <time>2017-07-10T08:53:21.000Z</time>
      </trkpt>
      <trkpt lat="44.6077" lon="5.53617">
        <ele>1543.95</ele>
        <time>2017-07-10T08:53:31.000Z</time>
      </trkpt>
      <trkpt lat="44.60775" lon="5.53628">
        <ele>1544.8</ele>
        <time>2017-07-10T08:53:46.000Z</time>
      </trkpt>
      <trkpt lat="44.6078" lon="5.53639">
        <ele>1546</ele>
        <time>2017-07-10T08:53:57.000Z</time>
      </trkpt>
      <trkpt lat="44.60782" lon="5.53651">
        <ele>1546.76</ele>
        <time>2017-07-10T08:54:09.000Z</time>
      </trkpt>
      <trkpt lat="44.60786" lon="5.53663">
        <ele>1547.24</ele>
        <time>2017-07-10T08:54:21.000Z</time>
      </trkpt>
      <trkpt lat="44.60791" lon="5.53674">
        <ele>1549.1</ele>
        <time>2017-07-10T08:54:33.000Z</time>
      </trkpt>
      <trkpt lat="44.60794" lon="5.53687">
        <ele>1551.19</ele>
        <time>2017-07-10T08:54:46.000Z</time>
      </trkpt>
      <trkpt lat="44.608" lon="5.53698">
        <ele>1550.72</ele>
        <time>2017-07-10T08:55:02.000Z</time>
      </trkpt>
      <trkpt lat="44.60799" lon="5.53713">
        <ele>1558.49</ele>
        <time>2017-07-10T08:55:16.000Z</time>
      </trkpt>
      <trkpt lat="44.60807" lon="5.5372">
        <ele>1557.81</ele>
        <time>2017-07-10T08:55:41.000Z</time>
      </trkpt>
      <trkpt lat="44.60805" lon="5.53738">
        <ele>1557.94</ele>
        <time>2017-07-10T08:55:51.000Z</time>
      </trkpt>
      <trkpt lat="44.60809" lon="5.53752">
        <ele>1561.67</ele>
        <time>2017-07-10T08:56:03.000Z</time>
      </trkpt>
      <trkpt lat="44.60812" lon="5.53765">
        <ele>1561.75</ele>
        <time>2017-07-10T08:56:31.000Z</time>
      </trkpt>
      <trkpt lat="44.60815" lon="5.53779">
        <ele>1563.02</ele>
        <time>2017-07-10T08:56:43.000Z</time>
      </trkpt>
      <trkpt lat="44.60816" lon="5.53793">
        <ele>1565.81</ele>
        <time>2017-07-10T08:57:02.000Z</time>
      </trkpt>
      <trkpt lat="44.60818" lon="5.53809">
        <ele>1563.77</ele>
        <time>2017-07-10T08:57:12.000Z</time>
      </trkpt>
      <trkpt lat="44.60825" lon="5.53816">
        <ele>1563.02</ele>
        <time>2017-07-10T08:57:22.000Z</time>
      </trkpt>
      <trkpt lat="44.60825" lon="5.5383">
        <ele>1566.76</ele>
        <time>2017-07-10T08:57:32.000Z</time>
      </trkpt>
      <trkpt lat="44.60829" lon="5.53843">
        <ele>1569.7</ele>
        <time>2017-07-10T08:57:43.000Z</time>
      </trkpt>
      <trkpt lat="44.60831" lon="5.53856">
        <ele>1569.75</ele>
        <time>2017-07-10T08:57:55.000Z</time>
      </trkpt>
      <trkpt lat="44.60837" lon="5.53866">
        <ele>1574.69</ele>
        <time>2017-07-10T08:58:08.000Z</time>
      </trkpt>
      <trkpt lat="44.6084" lon="5.53879">
        <ele>1576.25</ele>
        <time>2017-07-10T08:58:27.000Z</time>
      </trkpt>
      <trkpt lat="44.60844" lon="5.53891">
        <ele>1574.86</ele>
        <time>2017-07-10T08:58:39.000Z</time>
      </trkpt>
      <trkpt lat="44.60851" lon="5.539">
        <ele>1576.87</ele>
        <time>2017-07-10T08:58:49.000Z</time>
      </trkpt>
      <trkpt lat="44.60855" lon="5.53912">
        <ele>1578.99</ele>
        <time>2017-07-10T08:59:00.000Z</time>
      </trkpt>
      <trkpt lat="44.60856" lon="5.53925">
        <ele>1580.81</ele>
        <time>2017-07-10T08:59:11.000Z</time>
      </trkpt>
      <trkpt lat="44.60859" lon="5.53937">
        <ele>1583.74</ele>
        <time>2017-07-10T08:59:22.000Z</time>
      </trkpt>
      <trkpt lat="44.60865" lon="5.53948">
        <ele>1588.93</ele>
        <time>2017-07-10T08:59:33.000Z</time>
      </trkpt>
      <trkpt lat="44.60864" lon="5.53964">
        <ele>1586.55</ele>
        <time>2017-07-10T08:59:43.000Z</time>
      </trkpt>
      <trkpt lat="44.60871" lon="5.53973">
        <ele>1585.51</ele>
        <time>2017-07-10T08:59:57.000Z</time>
      </trkpt>
      <trkpt lat="44.6087" lon="5.53986">
        <ele>1587.81</ele>
        <time>2017-07-10T09:00:31.000Z</time>
      </trkpt>
      <trkpt lat="44.60875" lon="5.53996">
        <ele>1590.98</ele>
        <time>2017-07-10T09:00:42.000Z</time>
      </trkpt>
      <trkpt lat="44.60881" lon="5.54007">
        <ele>1592.69</ele>
        <time>2017-07-10T09:00:56.000Z</time>
      </trkpt>
      <trkpt lat="44.60882" lon="5.5402">
        <ele>1592.25</ele>
        <time>2017-07-10T09:01:19.000Z</time>
      </trkpt>
      <trkpt lat="44.60884" lon="5.54033">
        <ele>1593.8</ele>
        <time>2017-07-10T09:01:59.000Z</time>
      </trkpt>
      <trkpt lat="44.6089" lon="5.54048">
        <ele>1594.75</ele>
        <time>2017-07-10T09:02:09.000Z</time>
      </trkpt>
      <trkpt lat="44.60897" lon="5.54059">
        <ele>1597.06</ele>
        <time>2017-07-10T09:02:21.000Z</time>
      </trkpt>
      <trkpt lat="44.60897" lon="5.54073">
        <ele>1595.25</ele>
        <time>2017-07-10T09:02:32.000Z</time>
      </trkpt>
      <trkpt lat="44.60902" lon="5.54084">
        <ele>1597</ele>
        <time>2017-07-10T09:02:43.000Z</time>
      </trkpt>
      <trkpt lat="44.60907" lon="5.54095">
        <ele>1598.17</ele>
        <time>2017-07-10T09:02:57.000Z</time>
      </trkpt>
      <trkpt lat="44.60908" lon="5.54109">
        <ele>1600.18</ele>
        <time>2017-07-10T09:03:09.000Z</time>
      </trkpt>
      <trkpt lat="44.60914" lon="5.5412">
        <ele>1598.06</ele>
        <time>2017-07-10T09:03:23.000Z</time>
      </trkpt>
      <trkpt lat="44.60917" lon="5.54132">
        <ele>1599.19</ele>
        <time>2017-07-10T09:03:34.000Z</time>
      </trkpt>
      <trkpt lat="44.60922" lon="5.54143">
        <ele>1601.72</ele>
        <time>2017-07-10T09:03:49.000Z</time>
      </trkpt>
      <trkpt lat="44.60926" lon="5.54156">
        <ele>1601.05</ele>
        <time>2017-07-10T09:16:24.000Z</time>
      </trkpt>
      <trkpt lat="44.60925" lon="5.54169">
        <ele>1602.25</ele>
        <time>2017-07-10T09:16:36.000Z</time>
      </trkpt>
      <trkpt lat="44.60929" lon="5.54182">
        <ele>1599.59</ele>
        <time>2017-07-10T09:16:46.000Z</time>
      </trkpt>
      <trkpt lat="44.60932" lon="5.54196">
        <ele>1600.06</ele>
        <time>2017-07-10T09:16:59.000Z</time>
      </trkpt>
      <trkpt lat="44.6093" lon="5.54212">
        <ele>1600.94</ele>
        <time>2017-07-10T09:17:09.000Z</time>
      </trkpt>
      <trkpt lat="44.60925" lon="5.54222">
        <ele>1599.96</ele>
        <time>2017-07-10T09:17:50.000Z</time>
      </trkpt>
      <trkpt lat="44.60924" lon="5.54235">
        <ele>1599.25</ele>
        <time>2017-07-10T09:18:13.000Z</time>
      </trkpt>
      <trkpt lat="44.60925" lon="5.54253">
        <ele>1593.07</ele>
        <time>2017-07-10T09:18:23.000Z</time>
      </trkpt>
      <trkpt lat="44.60922" lon="5.54266">
        <ele>1591</ele>
        <time>2017-07-10T09:18:33.000Z</time>
      </trkpt>
      <trkpt lat="44.60921" lon="5.54281">
        <ele>1593.75</ele>
        <time>2017-07-10T09:18:43.000Z</time>
      </trkpt>
      <trkpt lat="44.60921" lon="5.54294">
        <ele>1592.02</ele>
        <time>2017-07-10T09:18:53.000Z</time>
      </trkpt>
      <trkpt lat="44.60922" lon="5.54308">
        <ele>1590.25</ele>
        <time>2017-07-10T09:19:03.000Z</time>
      </trkpt>
      <trkpt lat="44.6092" lon="5.54322">
        <ele>1587.82</ele>
        <time>2017-07-10T09:19:16.000Z</time>
      </trkpt>
      <trkpt lat="44.60923" lon="5.54336">
        <ele>1594.62</ele>
        <time>2017-07-10T09:19:26.000Z</time>
      </trkpt>
      <trkpt lat="44.60921" lon="5.54349">
        <ele>1598.77</ele>
        <time>2017-07-10T09:19:43.000Z</time>
      </trkpt>
      <trkpt lat="44.60924" lon="5.54361">
        <ele>1599.01</ele>
        <time>2017-07-10T09:19:53.000Z</time>
      </trkpt>
      <trkpt lat="44.60925" lon="5.54375">
        <ele>1595.94</ele>
        <time>2017-07-10T09:20:03.000Z</time>
      </trkpt>
      <trkpt lat="44.60924" lon="5.54389">
        <ele>1595.99</ele>
        <time>2017-07-10T09:20:16.000Z</time>
      </trkpt>
      <trkpt lat="44.60922" lon="5.54402">
        <ele>1594.16</ele>
        <time>2017-07-10T09:20:29.000Z</time>
      </trkpt>
      <trkpt lat="44.60925" lon="5.54416">
        <ele>1594</ele>
        <time>2017-07-10T09:21:25.000Z</time>
      </trkpt>
      <trkpt lat="44.60926" lon="5.54434">
        <ele>1590.46</ele>
        <time>2017-07-10T09:21:35.000Z</time>
      </trkpt>
      <trkpt lat="44.60926" lon="5.54454">
        <ele>1588</ele>
        <time>2017-07-10T09:21:45.000Z</time>
      </trkpt>
      <trkpt lat="44.60928" lon="5.54468">
        <ele>1589.84</ele>
        <time>2017-07-10T09:21:55.000Z</time>
      </trkpt>
      <trkpt lat="44.6093" lon="5.54481">
        <ele>1592.75</ele>
        <time>2017-07-10T09:22:08.000Z</time>
      </trkpt>
      <trkpt lat="44.60924" lon="5.54491">
        <ele>1587.88</ele>
        <time>2017-07-10T09:26:02.000Z</time>
      </trkpt>
      <trkpt lat="44.60927" lon="5.54503">
        <ele>1588.94</ele>
        <time>2017-07-10T09:26:23.000Z</time>
      </trkpt>
      <trkpt lat="44.60928" lon="5.54516">
        <ele>1586.25</ele>
        <time>2017-07-10T09:26:40.000Z</time>
      </trkpt>
      <trkpt lat="44.60932" lon="5.54529">
        <ele>1582.33</ele>
        <time>2017-07-10T09:26:50.000Z</time>
      </trkpt>
      <trkpt lat="44.60936" lon="5.54543">
        <ele>1582</ele>
        <time>2017-07-10T09:27:00.000Z</time>
      </trkpt>
      <trkpt lat="44.6094" lon="5.54556">
        <ele>1579.14</ele>
        <time>2017-07-10T09:27:15.000Z</time>
      </trkpt>
      <trkpt lat="44.60932" lon="5.54566">
        <ele>1584.23</ele>
        <time>2017-07-10T09:27:37.000Z</time>
      </trkpt>
      <trkpt lat="44.6094" lon="5.54582">
        <ele>1584.54</ele>
        <time>2017-07-10T09:27:47.000Z</time>
      </trkpt>
      <trkpt lat="44.60932" lon="5.54574">
        <ele>1586.16</ele>
        <time>2017-07-10T09:28:04.000Z</time>
      </trkpt>
      <trkpt lat="44.60936" lon="5.54588">
        <ele>1583.79</ele>
        <time>2017-07-10T09:28:15.000Z</time>
      </trkpt>
      <trkpt lat="44.60943" lon="5.54605">
        <ele>1582.92</ele>
        <time>2017-07-10T09:28:25.000Z</time>
      </trkpt>
      <trkpt lat="44.60948" lon="5.54617">
        <ele>1581.14</ele>
        <time>2017-07-10T09:28:35.000Z</time>
      </trkpt>
      <trkpt lat="44.6095" lon="5.54631">
        <ele>1577.27</ele>
        <time>2017-07-10T09:29:15.000Z</time>
      </trkpt>
      <trkpt lat="44.60947" lon="5.54648">
        <ele>1577.5</ele>
        <time>2017-07-10T09:29:25.000Z</time>
      </trkpt>
      <trkpt lat="44.60946" lon="5.54661">
        <ele>1574.83</ele>
        <time>2017-07-10T09:29:37.000Z</time>
      </trkpt>
      <trkpt lat="44.60945" lon="5.54674">
        <ele>1570.74</ele>
        <time>2017-07-10T09:29:47.000Z</time>
      </trkpt>
      <trkpt lat="44.60942" lon="5.54687">
        <ele>1566.33</ele>
        <time>2017-07-10T09:29:58.000Z</time>
      </trkpt>
      <trkpt lat="44.60948" lon="5.54698">
        <ele>1563.03</ele>
        <time>2017-07-10T09:30:08.000Z</time>
      </trkpt>
      <trkpt lat="44.60944" lon="5.5471">
        <ele>1566.93</ele>
        <time>2017-07-10T09:30:21.000Z</time>
      </trkpt>
      <trkpt lat="44.60948" lon="5.54722">
        <ele>1563.01</ele>
        <time>2017-07-10T09:30:34.000Z</time>
      </trkpt>
      <trkpt lat="44.60943" lon="5.54738">
        <ele>1561.05</ele>
        <time>2017-07-10T09:30:44.000Z</time>
      </trkpt>
      <trkpt lat="44.60945" lon="5.54751">
        <ele>1564.81</ele>
        <time>2017-07-10T09:30:55.000Z</time>
      </trkpt>
      <trkpt lat="44.60949" lon="5.54763">
        <ele>1564.89</ele>
        <time>2017-07-10T09:31:09.000Z</time>
      </trkpt>
      <trkpt lat="44.60952" lon="5.54776">
        <ele>1562.05</ele>
        <time>2017-07-10T09:31:33.000Z</time>
      </trkpt>
      <trkpt lat="44.60949" lon="5.5479">
        <ele>1559.26</ele>
        <time>2017-07-10T09:32:25.000Z</time>
      </trkpt>
      <trkpt lat="44.60948" lon="5.54802">
        <ele>1555.8</ele>
        <time>2017-07-10T09:32:49.000Z</time>
      </trkpt>
      <trkpt lat="44.60938" lon="5.54787">
        <ele>1553.06</ele>
        <time>2017-07-10T09:33:34.000Z</time>
      </trkpt>
      <trkpt lat="44.60935" lon="5.54765">
        <ele>1548.77</ele>
        <time>2017-07-10T09:33:44.000Z</time>
      </trkpt>
      <trkpt lat="44.60924" lon="5.54747">
        <ele>1551.35</ele>
        <time>2017-07-10T09:33:54.000Z</time>
      </trkpt>
      <trkpt lat="44.60931" lon="5.54756">
        <ele>1548.07</ele>
        <time>2017-07-10T09:34:04.000Z</time>
      </trkpt>
      <trkpt lat="44.60934" lon="5.54768">
        <ele>1548.75</ele>
        <time>2017-07-10T09:34:17.000Z</time>
      </trkpt>
      <trkpt lat="44.6094" lon="5.5478">
        <ele>1550.06</ele>
        <time>2017-07-10T09:34:28.000Z</time>
      </trkpt>
      <trkpt lat="44.60944" lon="5.54794">
        <ele>1552.3</ele>
        <time>2017-07-10T09:34:39.000Z</time>
      </trkpt>
      <trkpt lat="44.60949" lon="5.54808">
        <ele>1550.63</ele>
        <time>2017-07-10T09:34:49.000Z</time>
      </trkpt>
      <trkpt lat="44.6095" lon="5.54826">
        <ele>1549.01</ele>
        <time>2017-07-10T09:34:59.000Z</time>
      </trkpt>
      <trkpt lat="44.60951" lon="5.54841">
        <ele>1548</ele>
        <time>2017-07-10T09:35:09.000Z</time>
      </trkpt>
      <trkpt lat="44.60949" lon="5.54853">
        <ele>1551.5</ele>
        <time>2017-07-10T09:35:38.000Z</time>
      </trkpt>
      <trkpt lat="44.6095" lon="5.54877">
        <ele>1552.98</ele>
        <time>2017-07-10T09:35:48.000Z</time>
      </trkpt>
      <trkpt lat="44.60952" lon="5.54895">
        <ele>1551.57</ele>
        <time>2017-07-10T09:35:58.000Z</time>
      </trkpt>
      <trkpt lat="44.60953" lon="5.54916">
        <ele>1550</ele>
        <time>2017-07-10T09:36:08.000Z</time>
      </trkpt>
      <trkpt lat="44.60958" lon="5.54927">
        <ele>1546.24</ele>
        <time>2017-07-10T09:36:49.000Z</time>
      </trkpt>
      <trkpt lat="44.60956" lon="5.54942">
        <ele>1543.21</ele>
        <time>2017-07-10T09:36:59.000Z</time>
      </trkpt>
      <trkpt lat="44.60958" lon="5.54956">
        <ele>1537.27</ele>
        <time>2017-07-10T09:37:11.000Z</time>
      </trkpt>
      <trkpt lat="44.60958" lon="5.5497">
        <ele>1540.86</ele>
        <time>2017-07-10T09:37:21.000Z</time>
      </trkpt>
      <trkpt lat="44.60958" lon="5.54983">
        <ele>1537.25</ele>
        <time>2017-07-10T09:37:32.000Z</time>
      </trkpt>
      <trkpt lat="44.60961" lon="5.55">
        <ele>1538</ele>
        <time>2017-07-10T09:37:42.000Z</time>
      </trkpt>
      <trkpt lat="44.60961" lon="5.55015">
        <ele>1538.05</ele>
        <time>2017-07-10T09:37:52.000Z</time>
      </trkpt>
      <trkpt lat="44.60957" lon="5.55029">
        <ele>1535.81</ele>
        <time>2017-07-10T09:38:02.000Z</time>
      </trkpt>
      <trkpt lat="44.60958" lon="5.55045">
        <ele>1534.69</ele>
        <time>2017-07-10T09:38:12.000Z</time>
      </trkpt>
      <trkpt lat="44.60958" lon="5.55061">
        <ele>1534.2</ele>
        <time>2017-07-10T09:38:22.000Z</time>
      </trkpt>
      <trkpt lat="44.60964" lon="5.55076">
        <ele>1532.81</ele>
        <time>2017-07-10T09:38:32.000Z</time>
      </trkpt>
      <trkpt lat="44.60962" lon="5.55089">
        <ele>1530.14</ele>
        <time>2017-07-10T09:38:43.000Z</time>
      </trkpt>
      <trkpt lat="44.60966" lon="5.55104">
        <ele>1527.14</ele>
        <time>2017-07-10T09:38:54.000Z</time>
      </trkpt>
      <trkpt lat="44.60965" lon="5.55118">
        <ele>1527.7</ele>
        <time>2017-07-10T09:39:04.000Z</time>
      </trkpt>
      <trkpt lat="44.60965" lon="5.55131">
        <ele>1527.23</ele>
        <time>2017-07-10T09:39:14.000Z</time>
      </trkpt>
      <trkpt lat="44.6097" lon="5.55143">
        <ele>1525.21</ele>
        <time>2017-07-10T09:39:24.000Z</time>
      </trkpt>
      <trkpt lat="44.60972" lon="5.55161">
        <ele>1524</ele>
        <time>2017-07-10T09:39:34.000Z</time>
      </trkpt>
      <trkpt lat="44.60974" lon="5.55174">
        <ele>1523.06</ele>
        <time>2017-07-10T09:39:44.000Z</time>
      </trkpt>
      <trkpt lat="44.60977" lon="5.55187">
        <ele>1523.88</ele>
        <time>2017-07-10T09:39:55.000Z</time>
      </trkpt>
      <trkpt lat="44.60986" lon="5.552">
        <ele>1523.43</ele>
        <time>2017-07-10T09:40:05.000Z</time>
      </trkpt>
      <trkpt lat="44.60988" lon="5.55212">
        <ele>1519.5</ele>
        <time>2017-07-10T09:40:15.000Z</time>
      </trkpt>
      <trkpt lat="44.60991" lon="5.55227">
        <ele>1517.77</ele>
        <time>2017-07-10T09:40:25.000Z</time>
      </trkpt>
      <trkpt lat="44.61" lon="5.5524">
        <ele>1515.32</ele>
        <time>2017-07-10T09:40:35.000Z</time>
      </trkpt>
      <trkpt lat="44.61005" lon="5.55252">
        <ele>1515.99</ele>
        <time>2017-07-10T09:40:47.000Z</time>
      </trkpt>
      <trkpt lat="44.61008" lon="5.55267">
        <ele>1517.8</ele>
        <time>2017-07-10T09:40:57.000Z</time>
      </trkpt>
      <trkpt lat="44.6101" lon="5.55285">
        <ele>1514.96</ele>
        <time>2017-07-10T09:41:07.000Z</time>
      </trkpt>
      <trkpt lat="44.61015" lon="5.55299">
        <ele>1514</ele>
        <time>2017-07-10T09:41:19.000Z</time>
      </trkpt>
      <trkpt lat="44.61021" lon="5.55309">
        <ele>1513.19</ele>
        <time>2017-07-10T09:41:29.000Z</time>
      </trkpt>
      <trkpt lat="44.61029" lon="5.55321">
        <ele>1512.76</ele>
        <time>2017-07-10T09:41:39.000Z</time>
      </trkpt>
      <trkpt lat="44.61031" lon="5.55335">
        <ele>1509.26</ele>
        <time>2017-07-10T09:41:49.000Z</time>
      </trkpt>
      <trkpt lat="44.61038" lon="5.55344">
        <ele>1509.25</ele>
        <time>2017-07-10T09:41:59.000Z</time>
      </trkpt>
      <trkpt lat="44.61042" lon="5.55357">
        <ele>1507.08</ele>
        <time>2017-07-10T09:42:09.000Z</time>
      </trkpt>
      <trkpt lat="44.61044" lon="5.55373">
        <ele>1510.75</ele>
        <time>2017-07-10T09:42:19.000Z</time>
      </trkpt>
      <trkpt lat="44.61049" lon="5.55387">
        <ele>1508</ele>
        <time>2017-07-10T09:42:29.000Z</time>
      </trkpt>
      <trkpt lat="44.61054" lon="5.55399">
        <ele>1507.76</ele>
        <time>2017-07-10T09:42:39.000Z</time>
      </trkpt>
      <trkpt lat="44.61059" lon="5.55413">
        <ele>1504.81</ele>
        <time>2017-07-10T09:42:49.000Z</time>
      </trkpt>
      <trkpt lat="44.61069" lon="5.5542">
        <ele>1503.49</ele>
        <time>2017-07-10T09:42:59.000Z</time>
      </trkpt>
      <trkpt lat="44.61076" lon="5.55431">
        <ele>1502.98</ele>
        <time>2017-07-10T09:43:11.000Z</time>
      </trkpt>
      <trkpt lat="44.61082" lon="5.55441">
        <ele>1502.75</ele>
        <time>2017-07-10T09:43:21.000Z</time>
      </trkpt>
      <trkpt lat="44.61088" lon="5.55451">
        <ele>1498.59</ele>
        <time>2017-07-10T09:43:32.000Z</time>
      </trkpt>
      <trkpt lat="44.61104" lon="5.55459">
        <ele>1494.08</ele>
        <time>2017-07-10T09:43:42.000Z</time>
      </trkpt>
      <trkpt lat="44.61099" lon="5.55471">
        <ele>1488.34</ele>
        <time>2017-07-10T09:43:52.000Z</time>
      </trkpt>
      <trkpt lat="44.61103" lon="5.55487">
        <ele>1488.99</ele>
        <time>2017-07-10T09:44:02.000Z</time>
      </trkpt>
      <trkpt lat="44.61105" lon="5.55502">
        <ele>1492.51</ele>
        <time>2017-07-10T09:44:17.000Z</time>
      </trkpt>
      <trkpt lat="44.61124" lon="5.55508">
        <ele>1487.35</ele>
        <time>2017-07-10T09:44:27.000Z</time>
      </trkpt>
      <trkpt lat="44.61134" lon="5.55523">
        <ele>1486.74</ele>
        <time>2017-07-10T09:44:37.000Z</time>
      </trkpt>
      <trkpt lat="44.61147" lon="5.55535">
        <ele>1484.25</ele>
        <time>2017-07-10T09:44:47.000Z</time>
      </trkpt>
      <trkpt lat="44.61156" lon="5.55547">
        <ele>1483.7</ele>
        <time>2017-07-10T09:44:57.000Z</time>
      </trkpt>
      <trkpt lat="44.61147" lon="5.55552">
        <ele>1486.43</ele>
        <time>2017-07-10T09:45:39.000Z</time>
      </trkpt>
      <trkpt lat="44.61136" lon="5.55566">
        <ele>1486.21</ele>
        <time>2017-07-10T09:45:49.000Z</time>
      </trkpt>
      <trkpt lat="44.61128" lon="5.55573">
        <ele>1483.7</ele>
        <time>2017-07-10T09:46:00.000Z</time>
      </trkpt>
      <trkpt lat="44.61117" lon="5.55581">
        <ele>1481.06</ele>
        <time>2017-07-10T09:46:10.000Z</time>
      </trkpt>
      <trkpt lat="44.61112" lon="5.55592">
        <ele>1474.31</ele>
        <time>2017-07-10T09:46:21.000Z</time>
      </trkpt>
      <trkpt lat="44.61107" lon="5.55603">
        <ele>1472.28</ele>
        <time>2017-07-10T09:46:35.000Z</time>
      </trkpt>
      <trkpt lat="44.61101" lon="5.55612">
        <ele>1474.12</ele>
        <time>2017-07-10T09:46:50.000Z</time>
      </trkpt>
      <trkpt lat="44.6109" lon="5.55621">
        <ele>1473.05</ele>
        <time>2017-07-10T09:47:00.000Z</time>
      </trkpt>
      <trkpt lat="44.61081" lon="5.55633">
        <ele>1467.24</ele>
        <time>2017-07-10T09:47:12.000Z</time>
      </trkpt>
      <trkpt lat="44.6107" lon="5.55631">
        <ele>1463.32</ele>
        <time>2017-07-10T09:47:22.000Z</time>
      </trkpt>
      <trkpt lat="44.61062" lon="5.55623">
        <ele>1459.24</ele>
        <time>2017-07-10T09:47:33.000Z</time>
      </trkpt>
      <trkpt lat="44.61047" lon="5.55623">
        <ele>1455</ele>
        <time>2017-07-10T09:48:54.000Z</time>
      </trkpt>
      <trkpt lat="44.61023" lon="5.55621">
        <ele>1452.05</ele>
        <time>2017-07-10T09:49:04.000Z</time>
      </trkpt>
      <trkpt lat="44.6101" lon="5.55628">
        <ele>1451.27</ele>
        <time>2017-07-10T09:49:14.000Z</time>
      </trkpt>
      <trkpt lat="44.60987" lon="5.55631">
        <ele>1445.78</ele>
        <time>2017-07-10T09:49:24.000Z</time>
      </trkpt>
      <trkpt lat="44.60978" lon="5.55624">
        <ele>1445.7</ele>
        <time>2017-07-10T09:49:34.000Z</time>
      </trkpt>
      <trkpt lat="44.60968" lon="5.55625">
        <ele>1446</ele>
        <time>2017-07-10T09:50:15.000Z</time>
      </trkpt>
      <trkpt lat="44.60944" lon="5.55627">
        <ele>1439.31</ele>
        <time>2017-07-10T09:50:25.000Z</time>
      </trkpt>
      <trkpt lat="44.60927" lon="5.55631">
        <ele>1441.37</ele>
        <time>2017-07-10T09:50:35.000Z</time>
      </trkpt>
      <trkpt lat="44.60917" lon="5.55627">
        <ele>1439.96</ele>
        <time>2017-07-10T09:50:45.000Z</time>
      </trkpt>
      <trkpt lat="44.60902" lon="5.55629">
        <ele>1437.05</ele>
        <time>2017-07-10T09:50:55.000Z</time>
      </trkpt>
      <trkpt lat="44.60893" lon="5.55633">
        <ele>1432</ele>
        <time>2017-07-10T09:51:13.000Z</time>
      </trkpt>
      <trkpt lat="44.60884" lon="5.55637">
        <ele>1428.96</ele>
        <time>2017-07-10T09:51:41.000Z</time>
      </trkpt>
      <trkpt lat="44.60876" lon="5.55643">
        <ele>1429.02</ele>
        <time>2017-07-10T09:52:36.000Z</time>
      </trkpt>
      <trkpt lat="44.60866" lon="5.5565">
        <ele>1423.94</ele>
        <time>2017-07-10T09:52:46.000Z</time>
      </trkpt>
      <trkpt lat="44.60855" lon="5.55652">
        <ele>1426</ele>
        <time>2017-07-10T09:53:14.000Z</time>
      </trkpt>
      <trkpt lat="44.60839" lon="5.55661">
        <ele>1425</ele>
        <time>2017-07-10T09:53:24.000Z</time>
      </trkpt>
      <trkpt lat="44.6083" lon="5.55664">
        <ele>1421.28</ele>
        <time>2017-07-10T09:53:34.000Z</time>
      </trkpt>
      <trkpt lat="44.60817" lon="5.55665">
        <ele>1419</ele>
        <time>2017-07-10T09:53:44.000Z</time>
      </trkpt>
      <trkpt lat="44.60805" lon="5.55667">
        <ele>1420.07</ele>
        <time>2017-07-10T09:53:54.000Z</time>
      </trkpt>
      <trkpt lat="44.60795" lon="5.55669">
        <ele>1417.8</ele>
        <time>2017-07-10T09:54:06.000Z</time>
      </trkpt>
      <trkpt lat="44.6079" lon="5.5568">
        <ele>1413.83</ele>
        <time>2017-07-10T09:54:22.000Z</time>
      </trkpt>
      <trkpt lat="44.60781" lon="5.55684">
        <ele>1411.03</ele>
        <time>2017-07-10T09:54:32.000Z</time>
      </trkpt>
      <trkpt lat="44.60778" lon="5.55697">
        <ele>1408.02</ele>
        <time>2017-07-10T09:54:53.000Z</time>
      </trkpt>
      <trkpt lat="44.60766" lon="5.55692">
        <ele>1403.25</ele>
        <time>2017-07-10T09:55:03.000Z</time>
      </trkpt>
      <trkpt lat="44.60756" lon="5.55696">
        <ele>1401.25</ele>
        <time>2017-07-10T09:55:17.000Z</time>
      </trkpt>
      <trkpt lat="44.60746" lon="5.55697">
        <ele>1395</ele>
        <time>2017-07-10T09:55:31.000Z</time>
      </trkpt>
      <trkpt lat="44.60735" lon="5.55698">
        <ele>1393.87</ele>
        <time>2017-07-10T09:55:42.000Z</time>
      </trkpt>
      <trkpt lat="44.60725" lon="5.55702">
        <ele>1391.26</ele>
        <time>2017-07-10T09:55:52.000Z</time>
      </trkpt>
      <trkpt lat="44.60714" lon="5.55699">
        <ele>1394.75</ele>
        <time>2017-07-10T09:56:04.000Z</time>
      </trkpt>
      <trkpt lat="44.60701" lon="5.55698">
        <ele>1397.2</ele>
        <time>2017-07-10T09:56:14.000Z</time>
      </trkpt>
      <trkpt lat="44.60691" lon="5.557">
        <ele>1394</ele>
        <time>2017-07-10T09:56:36.000Z</time>
      </trkpt>
      <trkpt lat="44.60682" lon="5.55702">
        <ele>1393.74</ele>
        <time>2017-07-10T09:56:47.000Z</time>
      </trkpt>
      <trkpt lat="44.60685" lon="5.55714">
        <ele>1386.19</ele>
        <time>2017-07-10T09:56:58.000Z</time>
      </trkpt>
      <trkpt lat="44.60676" lon="5.55718">
        <ele>1384.98</ele>
        <time>2017-07-10T09:57:14.000Z</time>
      </trkpt>
      <trkpt lat="44.60657" lon="5.55717">
        <ele>1380.82</ele>
        <time>2017-07-10T09:57:24.000Z</time>
      </trkpt>
      <trkpt lat="44.6064" lon="5.55722">
        <ele>1378.82</ele>
        <time>2017-07-10T09:57:34.000Z</time>
      </trkpt>
      <trkpt lat="44.6065" lon="5.55724">
        <ele>1378.69</ele>
        <time>2017-07-10T09:57:44.000Z</time>
      </trkpt>
      <trkpt lat="44.6064" lon="5.55721">
        <ele>1381.94</ele>
        <time>2017-07-10T09:58:02.000Z</time>
      </trkpt>
      <trkpt lat="44.60636" lon="5.55734">
        <ele>1375.83</ele>
        <time>2017-07-10T09:58:22.000Z</time>
      </trkpt>
      <trkpt lat="44.60628" lon="5.5574">
        <ele>1370.19</ele>
        <time>2017-07-10T09:58:59.000Z</time>
      </trkpt>
      <trkpt lat="44.6063" lon="5.55763">
        <ele>1356.27</ele>
        <time>2017-07-10T09:59:09.000Z</time>
      </trkpt>
      <trkpt lat="44.60615" lon="5.55765">
        <ele>1361.67</ele>
        <time>2017-07-10T09:59:19.000Z</time>
      </trkpt>
      <trkpt lat="44.60605" lon="5.55771">
        <ele>1363.19</ele>
        <time>2017-07-10T09:59:29.000Z</time>
      </trkpt>
      <trkpt lat="44.60597" lon="5.55777">
        <ele>1360.06</ele>
        <time>2017-07-10T10:00:12.000Z</time>
      </trkpt>
      <trkpt lat="44.6059" lon="5.55788">
        <ele>1356</ele>
        <time>2017-07-10T10:00:49.000Z</time>
      </trkpt>
      <trkpt lat="44.60574" lon="5.55803">
        <ele>1352.75</ele>
        <time>2017-07-10T10:00:59.000Z</time>
      </trkpt>
      <trkpt lat="44.60565" lon="5.55805">
        <ele>1351.19</ele>
        <time>2017-07-10T10:01:44.000Z</time>
      </trkpt>
      <trkpt lat="44.60551" lon="5.55802">
        <ele>1349.75</ele>
        <time>2017-07-10T10:01:54.000Z</time>
      </trkpt>
      <trkpt lat="44.60547" lon="5.5579">
        <ele>1351.04</ele>
        <time>2017-07-10T10:02:05.000Z</time>
      </trkpt>
      <trkpt lat="44.60544" lon="5.55778">
        <ele>1352.16</ele>
        <time>2017-07-10T10:02:15.000Z</time>
      </trkpt>
      <trkpt lat="44.60537" lon="5.55767">
        <ele>1352.01</ele>
        <time>2017-07-10T10:02:25.000Z</time>
      </trkpt>
      <trkpt lat="44.60531" lon="5.5575">
        <ele>1349.75</ele>
        <time>2017-07-10T10:02:35.000Z</time>
      </trkpt>
      <trkpt lat="44.60534" lon="5.55738">
        <ele>1350.81</ele>
        <time>2017-07-10T10:02:46.000Z</time>
      </trkpt>
      <trkpt lat="44.6053" lon="5.55724">
        <ele>1348.47</ele>
        <time>2017-07-10T10:02:56.000Z</time>
      </trkpt>
      <trkpt lat="44.60529" lon="5.5571">
        <ele>1347.75</ele>
        <time>2017-07-10T10:03:16.000Z</time>
      </trkpt>
      <trkpt lat="44.60521" lon="5.557">
        <ele>1348.75</ele>
        <time>2017-07-10T10:03:30.000Z</time>
      </trkpt>
      <trkpt lat="44.60517" lon="5.55688">
        <ele>1348.99</ele>
        <time>2017-07-10T10:03:41.000Z</time>
      </trkpt>
      <trkpt lat="44.60519" lon="5.55675">
        <ele>1347.8</ele>
        <time>2017-07-10T10:03:54.000Z</time>
      </trkpt>
      <trkpt lat="44.60523" lon="5.55662">
        <ele>1346.98</ele>
        <time>2017-07-10T10:04:08.000Z</time>
      </trkpt>
      <trkpt lat="44.60525" lon="5.55649">
        <ele>1345.03</ele>
        <time>2017-07-10T10:04:18.000Z</time>
      </trkpt>
      <trkpt lat="44.60526" lon="5.55636">
        <ele>1346.95</ele>
        <time>2017-07-10T10:04:32.000Z</time>
      </trkpt>
      <trkpt lat="44.60528" lon="5.55622">
        <ele>1346.06</ele>
        <time>2017-07-10T10:04:43.000Z</time>
      </trkpt>
      <trkpt lat="44.60529" lon="5.55607">
        <ele>1347.69</ele>
        <time>2017-07-10T10:04:53.000Z</time>
      </trkpt>
      <trkpt lat="44.60531" lon="5.55592">
        <ele>1346.06</ele>
        <time>2017-07-10T10:05:27.000Z</time>
      </trkpt>
      <trkpt lat="44.60539" lon="5.55575">
        <ele>1340.31</ele>
        <time>2017-07-10T10:05:37.000Z</time>
      </trkpt>
      <trkpt lat="44.60535" lon="5.55563">
        <ele>1344.96</ele>
        <time>2017-07-10T10:05:58.000Z</time>
      </trkpt>
      <trkpt lat="44.60539" lon="5.55551">
        <ele>1345.01</ele>
        <time>2017-07-10T10:06:08.000Z</time>
      </trkpt>
      <trkpt lat="44.6054" lon="5.55538">
        <ele>1344.98</ele>
        <time>2017-07-10T10:06:19.000Z</time>
      </trkpt>
      <trkpt lat="44.60546" lon="5.55528">
        <ele>1342.08</ele>
        <time>2017-07-10T10:06:34.000Z</time>
      </trkpt>
      <trkpt lat="44.6055" lon="5.55516">
        <ele>1340.94</ele>
        <time>2017-07-10T10:06:54.000Z</time>
      </trkpt>
      <trkpt lat="44.60555" lon="5.55504">
        <ele>1343.94</ele>
        <time>2017-07-10T10:07:05.000Z</time>
      </trkpt>
      <trkpt lat="44.60557" lon="5.55492">
        <ele>1344.94</ele>
        <time>2017-07-10T10:07:15.000Z</time>
      </trkpt>
      <trkpt lat="44.60559" lon="5.55479">
        <ele>1346</ele>
        <time>2017-07-10T10:07:30.000Z</time>
      </trkpt>
      <trkpt lat="44.60553" lon="5.55468">
        <ele>1347</ele>
        <time>2017-07-10T10:07:40.000Z</time>
      </trkpt>
      <trkpt lat="44.6055" lon="5.55457">
        <ele>1345.06</ele>
        <time>2017-07-10T10:07:51.000Z</time>
      </trkpt>
      <trkpt lat="44.60547" lon="5.55444">
        <ele>1345</ele>
        <time>2017-07-10T10:08:01.000Z</time>
      </trkpt>
      <trkpt lat="44.60543" lon="5.55433">
        <ele>1345.01</ele>
        <time>2017-07-10T10:08:13.000Z</time>
      </trkpt>
      <trkpt lat="44.60538" lon="5.55421">
        <ele>1344.23</ele>
        <time>2017-07-10T10:08:25.000Z</time>
      </trkpt>
      <trkpt lat="44.60543" lon="5.5541">
        <ele>1346</ele>
        <time>2017-07-10T10:08:38.000Z</time>
      </trkpt>
      <trkpt lat="44.60531" lon="5.55397">
        <ele>1345.26</ele>
        <time>2017-07-10T10:08:48.000Z</time>
      </trkpt>
      <trkpt lat="44.6053" lon="5.55382">
        <ele>1349.98</ele>
        <time>2017-07-10T10:09:02.000Z</time>
      </trkpt>
      <trkpt lat="44.60525" lon="5.5537">
        <ele>1343.25</ele>
        <time>2017-07-10T10:09:50.000Z</time>
      </trkpt>
      <trkpt lat="44.6052" lon="5.55356">
        <ele>1341.2</ele>
        <time>2017-07-10T10:10:00.000Z</time>
      </trkpt>
      <trkpt lat="44.60517" lon="5.55342">
        <ele>1339.94</ele>
        <time>2017-07-10T10:10:10.000Z</time>
      </trkpt>
      <trkpt lat="44.60507" lon="5.55347">
        <ele>1341.02</ele>
        <time>2017-07-10T10:10:28.000Z</time>
      </trkpt>
      <trkpt lat="44.60503" lon="5.55334">
        <ele>1334.39</ele>
        <time>2017-07-10T10:11:31.000Z</time>
      </trkpt>
      <trkpt lat="44.60503" lon="5.55318">
        <ele>1331.26</ele>
        <time>2017-07-10T10:11:41.000Z</time>
      </trkpt>
      <trkpt lat="44.60494" lon="5.55312">
        <ele>1332.49</ele>
        <time>2017-07-10T10:11:51.000Z</time>
      </trkpt>
      <trkpt lat="44.60485" lon="5.55306">
        <ele>1330.97</ele>
        <time>2017-07-10T10:12:10.000Z</time>
      </trkpt>
      <trkpt lat="44.6048" lon="5.55295">
        <ele>1331.67</ele>
        <time>2017-07-10T10:12:20.000Z</time>
      </trkpt>
      <trkpt lat="44.60473" lon="5.55283">
        <ele>1331.55</ele>
        <time>2017-07-10T10:12:39.000Z</time>
      </trkpt>
      <trkpt lat="44.60463" lon="5.55288">
        <ele>1333.08</ele>
        <time>2017-07-10T10:12:53.000Z</time>
      </trkpt>
      <trkpt lat="44.60475" lon="5.55281">
        <ele>1333.18</ele>
        <time>2017-07-10T10:13:03.000Z</time>
      </trkpt>
      <trkpt lat="44.60468" lon="5.55272">
        <ele>1332.06</ele>
        <time>2017-07-10T10:13:22.000Z</time>
      </trkpt>
      <trkpt lat="44.60465" lon="5.55248">
        <ele>1335.91</ele>
        <time>2017-07-10T10:13:32.000Z</time>
      </trkpt>
      <trkpt lat="44.60469" lon="5.55233">
        <ele>1332.03</ele>
        <time>2017-07-10T10:13:42.000Z</time>
      </trkpt>
      <trkpt lat="44.60466" lon="5.5522">
        <ele>1329.31</ele>
        <time>2017-07-10T10:14:00.000Z</time>
      </trkpt>
      <trkpt lat="44.60472" lon="5.5521">
        <ele>1327.63</ele>
        <time>2017-07-10T10:14:11.000Z</time>
      </trkpt>
      <trkpt lat="44.60471" lon="5.55195">
        <ele>1327.01</ele>
        <time>2017-07-10T10:14:21.000Z</time>
      </trkpt>
      <trkpt lat="44.60469" lon="5.55181">
        <ele>1324.75</ele>
        <time>2017-07-10T10:14:31.000Z</time>
      </trkpt>
      <trkpt lat="44.60475" lon="5.55167">
        <ele>1325.29</ele>
        <time>2017-07-10T10:14:41.000Z</time>
      </trkpt>
      <trkpt lat="44.60472" lon="5.55154">
        <ele>1328</ele>
        <time>2017-07-10T10:14:52.000Z</time>
      </trkpt>
      <trkpt lat="44.60478" lon="5.55141">
        <ele>1323.85</ele>
        <time>2017-07-10T10:15:02.000Z</time>
      </trkpt>
      <trkpt lat="44.60478" lon="5.55128">
        <ele>1320.83</ele>
        <time>2017-07-10T10:15:13.000Z</time>
      </trkpt>
      <trkpt lat="44.60477" lon="5.55111">
        <ele>1320.94</ele>
        <time>2017-07-10T10:15:23.000Z</time>
      </trkpt>
      <trkpt lat="44.60473" lon="5.55098">
        <ele>1321.56</ele>
        <time>2017-07-10T10:15:36.000Z</time>
      </trkpt>
      <trkpt lat="44.60467" lon="5.55085">
        <ele>1325.67</ele>
        <time>2017-07-10T10:15:48.000Z</time>
      </trkpt>
      <trkpt lat="44.6047" lon="5.55073">
        <ele>1324.02</ele>
        <time>2017-07-10T10:16:00.000Z</time>
      </trkpt>
      <trkpt lat="44.60476" lon="5.55062">
        <ele>1326.58</ele>
        <time>2017-07-10T10:16:10.000Z</time>
      </trkpt>
      <trkpt lat="44.60485" lon="5.5505">
        <ele>1317.56</ele>
        <time>2017-07-10T10:17:00.000Z</time>
      </trkpt>
      <trkpt lat="44.60479" lon="5.5503">
        <ele>1316.95</ele>
        <time>2017-07-10T10:17:10.000Z</time>
      </trkpt>
      <trkpt lat="44.60479" lon="5.55012">
        <ele>1320.14</ele>
        <time>2017-07-10T10:17:20.000Z</time>
      </trkpt>
      <trkpt lat="44.60467" lon="5.55015">
        <ele>1331.93</ele>
        <time>2017-07-10T10:17:30.000Z</time>
      </trkpt>
      <trkpt lat="44.60468" lon="5.55032">
        <ele>1328</ele>
        <time>2017-07-10T10:17:55.000Z</time>
      </trkpt>
      <trkpt lat="44.6048" lon="5.55029">
        <ele>1329.67</ele>
        <time>2017-07-10T10:18:10.000Z</time>
      </trkpt>
      <trkpt lat="44.60471" lon="5.55026">
        <ele>1332.25</ele>
        <time>2017-07-10T10:18:48.000Z</time>
      </trkpt>
      <trkpt lat="44.60463" lon="5.55019">
        <ele>1334.52</ele>
        <time>2017-07-10T10:20:09.000Z</time>
      </trkpt>
      <trkpt lat="44.60441" lon="5.54992">
        <ele>1326.25</ele>
        <time>2017-07-10T10:20:19.000Z</time>
      </trkpt>
      <trkpt lat="44.6043" lon="5.54985">
        <ele>1326.98</ele>
        <time>2017-07-10T10:20:29.000Z</time>
      </trkpt>
      <trkpt lat="44.60421" lon="5.54979">
        <ele>1317.35</ele>
        <time>2017-07-10T10:21:18.000Z</time>
      </trkpt>
      <trkpt lat="44.60405" lon="5.54969">
        <ele>1313.26</ele>
        <time>2017-07-10T10:21:28.000Z</time>
      </trkpt>
      <trkpt lat="44.60392" lon="5.54962">
        <ele>1310.3</ele>
        <time>2017-07-10T10:21:38.000Z</time>
      </trkpt>
      <trkpt lat="44.60384" lon="5.54954">
        <ele>1309.07</ele>
        <time>2017-07-10T10:22:20.000Z</time>
      </trkpt>
      <trkpt lat="44.60373" lon="5.54948">
        <ele>1305.75</ele>
        <time>2017-07-10T10:22:30.000Z</time>
      </trkpt>
      <trkpt lat="44.60365" lon="5.54938">
        <ele>1304.25</ele>
        <time>2017-07-10T10:22:41.000Z</time>
      </trkpt>
      <trkpt lat="44.60361" lon="5.54927">
        <ele>1302</ele>
        <time>2017-07-10T10:22:53.000Z</time>
      </trkpt>
      <trkpt lat="44.60353" lon="5.54919">
        <ele>1304.78</ele>
        <time>2017-07-10T10:23:03.000Z</time>
      </trkpt>
      <trkpt lat="44.6035" lon="5.54905">
        <ele>1302.45</ele>
        <time>2017-07-10T10:23:20.000Z</time>
      </trkpt>
      <trkpt lat="44.60344" lon="5.54893">
        <ele>1295.83</ele>
        <time>2017-07-10T10:23:30.000Z</time>
      </trkpt>
      <trkpt lat="44.60333" lon="5.54875">
        <ele>1299</ele>
        <time>2017-07-10T10:23:40.000Z</time>
      </trkpt>
      <trkpt lat="44.60332" lon="5.54861">
        <ele>1298.3</ele>
        <time>2017-07-10T10:24:10.000Z</time>
      </trkpt>
      <trkpt lat="44.60328" lon="5.54839">
        <ele>1296.75</ele>
        <time>2017-07-10T10:24:20.000Z</time>
      </trkpt>
      <trkpt lat="44.60324" lon="5.54825">
        <ele>1294.25</ele>
        <time>2017-07-10T10:24:30.000Z</time>
      </trkpt>
      <trkpt lat="44.60318" lon="5.54814">
        <ele>1289</ele>
        <time>2017-07-10T10:25:05.000Z</time>
      </trkpt>
      <trkpt lat="44.60314" lon="5.54794">
        <ele>1291.67</ele>
        <time>2017-07-10T10:25:15.000Z</time>
      </trkpt>
      <trkpt lat="44.60309" lon="5.54778">
        <ele>1290.05</ele>
        <time>2017-07-10T10:25:25.000Z</time>
      </trkpt>
      <trkpt lat="44.60306" lon="5.54766">
        <ele>1290</ele>
        <time>2017-07-10T10:25:41.000Z</time>
      </trkpt>
      <trkpt lat="44.603" lon="5.54752">
        <ele>1287.25</ele>
        <time>2017-07-10T10:25:51.000Z</time>
      </trkpt>
      <trkpt lat="44.60247" lon="5.5467">
        <ele>1281</ele>
        <time>2017-07-10T10:26:39.000Z</time>
      </trkpt>
      <trkpt lat="44.60256" lon="5.54697">
        <ele>1294.5</ele>
        <time>2017-07-10T10:27:19.000Z</time>
      </trkpt>
      <trkpt lat="44.60278" lon="5.54708">
        <ele>1303.26</ele>
        <time>2017-07-10T10:27:29.000Z</time>
      </trkpt>
      <trkpt lat="44.60294" lon="5.54703">
        <ele>1296.06</ele>
        <time>2017-07-10T10:27:40.000Z</time>
      </trkpt>
      <trkpt lat="44.60291" lon="5.5469">
        <ele>1293.98</ele>
        <time>2017-07-10T10:27:50.000Z</time>
      </trkpt>
      <trkpt lat="44.60281" lon="5.54685">
        <ele>1291.21</ele>
        <time>2017-07-10T10:28:01.000Z</time>
      </trkpt>
      <trkpt lat="44.60275" lon="5.54673">
        <ele>1286.2</ele>
        <time>2017-07-10T10:28:13.000Z</time>
      </trkpt>
      <trkpt lat="44.60284" lon="5.54672">
        <ele>1272.31</ele>
        <time>2017-07-10T10:28:39.000Z</time>
      </trkpt>
      <trkpt lat="44.60276" lon="5.54662">
        <ele>1267.25</ele>
        <time>2017-07-10T10:29:29.000Z</time>
      </trkpt>
      <trkpt lat="44.60256" lon="5.54639">
        <ele>1262.87</ele>
        <time>2017-07-10T10:29:39.000Z</time>
      </trkpt>
      <trkpt lat="44.60264" lon="5.54609">
        <ele>1247.7</ele>
        <time>2017-07-10T10:29:49.000Z</time>
      </trkpt>
      <trkpt lat="44.60254" lon="5.54598">
        <ele>1249.26</ele>
        <time>2017-07-10T10:29:59.000Z</time>
      </trkpt>
      <trkpt lat="44.60243" lon="5.54584">
        <ele>1253.75</ele>
        <time>2017-07-10T10:30:10.000Z</time>
      </trkpt>
      <trkpt lat="44.60235" lon="5.54578">
        <ele>1257.5</ele>
        <time>2017-07-10T10:30:25.000Z</time>
      </trkpt>
      <trkpt lat="44.60226" lon="5.5457">
        <ele>1254.75</ele>
        <time>2017-07-10T10:30:37.000Z</time>
      </trkpt>
      <trkpt lat="44.60216" lon="5.54571">
        <ele>1260.02</ele>
        <time>2017-07-10T10:30:53.000Z</time>
      </trkpt>
      <trkpt lat="44.6022" lon="5.54559">
        <ele>1256.04</ele>
        <time>2017-07-10T10:31:03.000Z</time>
      </trkpt>
      <trkpt lat="44.60224" lon="5.54545">
        <ele>1249.74</ele>
        <time>2017-07-10T10:31:17.000Z</time>
      </trkpt>
      <trkpt lat="44.60202" lon="5.5454">
        <ele>1246.82</ele>
        <time>2017-07-10T10:31:27.000Z</time>
      </trkpt>
      <trkpt lat="44.60199" lon="5.54528">
        <ele>1251.1</ele>
        <time>2017-07-10T10:31:38.000Z</time>
      </trkpt>
      <trkpt lat="44.60184" lon="5.54519">
        <ele>1245.31</ele>
        <time>2017-07-10T10:31:48.000Z</time>
      </trkpt>
      <trkpt lat="44.60181" lon="5.54506">
        <ele>1240.08</ele>
        <time>2017-07-10T10:32:00.000Z</time>
      </trkpt>
      <trkpt lat="44.60175" lon="5.54495">
        <ele>1240.73</ele>
        <time>2017-07-10T10:32:10.000Z</time>
      </trkpt>
      <trkpt lat="44.60165" lon="5.5449">
        <ele>1242.19</ele>
        <time>2017-07-10T10:32:24.000Z</time>
      </trkpt>
      <trkpt lat="44.60153" lon="5.54485">
        <ele>1241.25</ele>
        <time>2017-07-10T10:32:35.000Z</time>
      </trkpt>
      <trkpt lat="44.60152" lon="5.54472">
        <ele>1240.77</ele>
        <time>2017-07-10T10:32:55.000Z</time>
      </trkpt>
      <trkpt lat="44.60149" lon="5.54458">
        <ele>1241.01</ele>
        <time>2017-07-10T10:33:06.000Z</time>
      </trkpt>
      <trkpt lat="44.60137" lon="5.54451">
        <ele>1235.33</ele>
        <time>2017-07-10T10:33:16.000Z</time>
      </trkpt>
      <trkpt lat="44.6013" lon="5.54438">
        <ele>1233</ele>
        <time>2017-07-10T10:33:26.000Z</time>
      </trkpt>
      <trkpt lat="44.60114" lon="5.54426">
        <ele>1230.27</ele>
        <time>2017-07-10T10:33:36.000Z</time>
      </trkpt>
      <trkpt lat="44.60122" lon="5.54415">
        <ele>1228.25</ele>
        <time>2017-07-10T10:33:46.000Z</time>
      </trkpt>
      <trkpt lat="44.60128" lon="5.54403">
        <ele>1218.09</ele>
        <time>2017-07-10T10:33:56.000Z</time>
      </trkpt>
      <trkpt lat="44.60122" lon="5.54389">
        <ele>1194.17</ele>
        <time>2017-07-10T10:34:29.000Z</time>
      </trkpt>
      <trkpt lat="44.60115" lon="5.54379">
        <ele>1222.98</ele>
        <time>2017-07-10T10:34:52.000Z</time>
      </trkpt>
      <trkpt lat="44.60113" lon="5.54365">
        <ele>1221.83</ele>
        <time>2017-07-10T10:35:02.000Z</time>
      </trkpt>
      <trkpt lat="44.60115" lon="5.54349">
        <ele>1217.72</ele>
        <time>2017-07-10T10:35:12.000Z</time>
      </trkpt>
      <trkpt lat="44.60116" lon="5.54335">
        <ele>1216.06</ele>
        <time>2017-07-10T10:35:26.000Z</time>
      </trkpt>
      <trkpt lat="44.60113" lon="5.54321">
        <ele>1216.98</ele>
        <time>2017-07-10T10:35:38.000Z</time>
      </trkpt>
      <trkpt lat="44.60107" lon="5.54312">
        <ele>1216</ele>
        <time>2017-07-10T10:35:50.000Z</time>
      </trkpt>
      <trkpt lat="44.60091" lon="5.54306">
        <ele>1216.89</ele>
        <time>2017-07-10T10:36:00.000Z</time>
      </trkpt>
      <trkpt lat="44.60089" lon="5.54292">
        <ele>1218.18</ele>
        <time>2017-07-10T10:36:35.000Z</time>
      </trkpt>
      <trkpt lat="44.60089" lon="5.54275">
        <ele>1216.75</ele>
        <time>2017-07-10T10:36:45.000Z</time>
      </trkpt>
      <trkpt lat="44.6008" lon="5.54265">
        <ele>1217.01</ele>
        <time>2017-07-10T10:36:55.000Z</time>
      </trkpt>
      <trkpt lat="44.60068" lon="5.54257">
        <ele>1215.07</ele>
        <time>2017-07-10T10:37:05.000Z</time>
      </trkpt>
      <trkpt lat="44.60068" lon="5.54238">
        <ele>1214.17</ele>
        <time>2017-07-10T10:37:15.000Z</time>
      </trkpt>
      <trkpt lat="44.60069" lon="5.54225">
        <ele>1210.08</ele>
        <time>2017-07-10T10:37:25.000Z</time>
      </trkpt>
      <trkpt lat="44.60065" lon="5.54212">
        <ele>1206.33</ele>
        <time>2017-07-10T10:37:36.000Z</time>
      </trkpt>
      <trkpt lat="44.60065" lon="5.54198">
        <ele>1205.81</ele>
        <time>2017-07-10T10:37:46.000Z</time>
      </trkpt>
      <trkpt lat="44.60058" lon="5.54189">
        <ele>1207.02</ele>
        <time>2017-07-10T10:38:00.000Z</time>
      </trkpt>
      <trkpt lat="44.60063" lon="5.54175">
        <ele>1207.81</ele>
        <time>2017-07-10T10:38:10.000Z</time>
      </trkpt>
      <trkpt lat="44.60051" lon="5.54163">
        <ele>1206.03</ele>
        <time>2017-07-10T10:38:20.000Z</time>
      </trkpt>
      <trkpt lat="44.60059" lon="5.54149">
        <ele>1202.75</ele>
        <time>2017-07-10T10:38:30.000Z</time>
      </trkpt>
      <trkpt lat="44.60052" lon="5.54138">
        <ele>1199.31</ele>
        <time>2017-07-10T10:38:40.000Z</time>
      </trkpt>
      <trkpt lat="44.60043" lon="5.54123">
        <ele>1200.93</ele>
        <time>2017-07-10T10:38:50.000Z</time>
      </trkpt>
      <trkpt lat="44.60044" lon="5.5411">
        <ele>1196.25</ele>
        <time>2017-07-10T10:39:56.000Z</time>
      </trkpt>
      <trkpt lat="44.60032" lon="5.5409">
        <ele>1191.63</ele>
        <time>2017-07-10T10:40:06.000Z</time>
      </trkpt>
      <trkpt lat="44.60029" lon="5.54069">
        <ele>1186.03</ele>
        <time>2017-07-10T10:40:16.000Z</time>
      </trkpt>
      <trkpt lat="44.60022" lon="5.54051">
        <ele>1193.67</ele>
        <time>2017-07-10T10:40:26.000Z</time>
      </trkpt>
      <trkpt lat="44.60018" lon="5.54036">
        <ele>1191.69</ele>
        <time>2017-07-10T10:40:36.000Z</time>
      </trkpt>
      <trkpt lat="44.60024" lon="5.54024">
        <ele>1187.24</ele>
        <time>2017-07-10T10:40:46.000Z</time>
      </trkpt>
      <trkpt lat="44.60007" lon="5.54005">
        <ele>1189.95</ele>
        <time>2017-07-10T10:40:56.000Z</time>
      </trkpt>
      <trkpt lat="44.60005" lon="5.53991">
        <ele>1189.18</ele>
        <time>2017-07-10T10:41:06.000Z</time>
      </trkpt>
      <trkpt lat="44.6" lon="5.5398">
        <ele>1187</ele>
        <time>2017-07-10T10:41:23.000Z</time>
      </trkpt>
      <trkpt lat="44.60016" lon="5.53969">
        <ele>1181.04</ele>
        <time>2017-07-10T10:41:56.000Z</time>
      </trkpt>
      <trkpt lat="44.60011" lon="5.53955">
        <ele>1183.03</ele>
        <time>2017-07-10T10:42:06.000Z</time>
      </trkpt>
      <trkpt lat="44.60009" lon="5.53942">
        <ele>1177.01</ele>
        <time>2017-07-10T10:42:17.000Z</time>
      </trkpt>
      <trkpt lat="44.60014" lon="5.53921">
        <ele>1176.69</ele>
        <time>2017-07-10T10:42:27.000Z</time>
      </trkpt>
      <trkpt lat="44.60014" lon="5.53908">
        <ele>1176.25</ele>
        <time>2017-07-10T10:42:38.000Z</time>
      </trkpt>
      <trkpt lat="44.60019" lon="5.53897">
        <ele>1174.94</ele>
        <time>2017-07-10T10:42:51.000Z</time>
      </trkpt>
      <trkpt lat="44.60021" lon="5.53885">
        <ele>1171.2</ele>
        <time>2017-07-10T10:43:04.000Z</time>
      </trkpt>
      <trkpt lat="44.60011" lon="5.5388">
        <ele>1169.83</ele>
        <time>2017-07-10T10:43:15.000Z</time>
      </trkpt>
      <trkpt lat="44.60005" lon="5.53866">
        <ele>1172.52</ele>
        <time>2017-07-10T10:43:25.000Z</time>
      </trkpt>
      <trkpt lat="44.60003" lon="5.5385">
        <ele>1174.11</ele>
        <time>2017-07-10T10:44:19.000Z</time>
      </trkpt>
      <trkpt lat="44.59988" lon="5.53833">
        <ele>1170.76</ele>
        <time>2017-07-10T10:44:29.000Z</time>
      </trkpt>
      <trkpt lat="44.59982" lon="5.53821">
        <ele>1167.32</ele>
        <time>2017-07-10T10:45:07.000Z</time>
      </trkpt>
      <trkpt lat="44.59973" lon="5.53781">
        <ele>1166.81</ele>
        <time>2017-07-10T10:45:17.000Z</time>
      </trkpt>
      <trkpt lat="44.59959" lon="5.53765">
        <ele>1167.04</ele>
        <time>2017-07-10T10:45:27.000Z</time>
      </trkpt>
      <trkpt lat="44.59962" lon="5.53752">
        <ele>1163.94</ele>
        <time>2017-07-10T10:45:38.000Z</time>
      </trkpt>
      <trkpt lat="44.59959" lon="5.53736">
        <ele>1163</ele>
        <time>2017-07-10T10:45:48.000Z</time>
      </trkpt>
      <trkpt lat="44.59954" lon="5.53719">
        <ele>1159.34</ele>
        <time>2017-07-10T10:45:58.000Z</time>
      </trkpt>
      <trkpt lat="44.59956" lon="5.53705">
        <ele>1159.25</ele>
        <time>2017-07-10T10:46:08.000Z</time>
      </trkpt>
      <trkpt lat="44.59951" lon="5.5369">
        <ele>1160.75</ele>
        <time>2017-07-10T10:46:18.000Z</time>
      </trkpt>
      <trkpt lat="44.59946" lon="5.53675">
        <ele>1159.86</ele>
        <time>2017-07-10T10:46:28.000Z</time>
      </trkpt>
      <trkpt lat="44.59942" lon="5.53663">
        <ele>1158.83</ele>
        <time>2017-07-10T10:46:38.000Z</time>
      </trkpt>
      <trkpt lat="44.5994" lon="5.5365">
        <ele>1160</ele>
        <time>2017-07-10T10:46:48.000Z</time>
      </trkpt>
      <trkpt lat="44.5993" lon="5.53639">
        <ele>1160.98</ele>
        <time>2017-07-10T10:46:58.000Z</time>
      </trkpt>
      <trkpt lat="44.59932" lon="5.53625">
        <ele>1153.95</ele>
        <time>2017-07-10T10:47:08.000Z</time>
      </trkpt>
      <trkpt lat="44.59925" lon="5.53616">
        <ele>1157.74</ele>
        <time>2017-07-10T10:47:18.000Z</time>
      </trkpt>
      <trkpt lat="44.5992" lon="5.53597">
        <ele>1157.67</ele>
        <time>2017-07-10T10:47:28.000Z</time>
      </trkpt>
      <trkpt lat="44.59914" lon="5.53586">
        <ele>1158.22</ele>
        <time>2017-07-10T10:47:38.000Z</time>
      </trkpt>
      <trkpt lat="44.59915" lon="5.53574">
        <ele>1157.25</ele>
        <time>2017-07-10T10:47:48.000Z</time>
      </trkpt>
      <trkpt lat="44.59915" lon="5.5356">
        <ele>1149.02</ele>
        <time>2017-07-10T10:48:05.000Z</time>
      </trkpt>
      <trkpt lat="44.59921" lon="5.53548">
        <ele>1146.02</ele>
        <time>2017-07-10T10:48:17.000Z</time>
      </trkpt>
      <trkpt lat="44.59913" lon="5.53537">
        <ele>1148.69</ele>
        <time>2017-07-10T10:48:27.000Z</time>
      </trkpt>
      <trkpt lat="44.59919" lon="5.53524">
        <ele>1143.23</ele>
        <time>2017-07-10T10:48:37.000Z</time>
      </trkpt>
      <trkpt lat="44.59913" lon="5.53514">
        <ele>1139.27</ele>
        <time>2017-07-10T10:48:47.000Z</time>
      </trkpt>
      <trkpt lat="44.59913" lon="5.53496">
        <ele>1134.08</ele>
        <time>2017-07-10T10:48:57.000Z</time>
      </trkpt>
      <trkpt lat="44.5992" lon="5.53487">
        <ele>1132.01</ele>
        <time>2017-07-10T10:49:07.000Z</time>
      </trkpt>
      <trkpt lat="44.59925" lon="5.53476">
        <ele>1133.23</ele>
        <time>2017-07-10T10:49:17.000Z</time>
      </trkpt>
      <trkpt lat="44.59923" lon="5.53457">
        <ele>1132.01</ele>
        <time>2017-07-10T10:49:27.000Z</time>
      </trkpt>
      <trkpt lat="44.5993" lon="5.53448">
        <ele>1132.69</ele>
        <time>2017-07-10T10:49:42.000Z</time>
      </trkpt>
      <trkpt lat="44.59926" lon="5.53435">
        <ele>1133.8</ele>
        <time>2017-07-10T10:49:55.000Z</time>
      </trkpt>
      <trkpt lat="44.59936" lon="5.53423">
        <ele>1135.69</ele>
        <time>2017-07-10T10:50:05.000Z</time>
      </trkpt>
      <trkpt lat="44.59944" lon="5.53431">
        <ele>1138.73</ele>
        <time>2017-07-10T10:50:24.000Z</time>
      </trkpt>
      <trkpt lat="44.59952" lon="5.53424">
        <ele>1127.97</ele>
        <time>2017-07-10T10:50:48.000Z</time>
      </trkpt>
      <trkpt lat="44.59942" lon="5.53413">
        <ele>1128.72</ele>
        <time>2017-07-10T10:50:58.000Z</time>
      </trkpt>
      <trkpt lat="44.59943" lon="5.53398">
        <ele>1123.32</ele>
        <time>2017-07-10T10:51:08.000Z</time>
      </trkpt>
      <trkpt lat="44.59937" lon="5.53384">
        <ele>1125</ele>
        <time>2017-07-10T10:51:18.000Z</time>
      </trkpt>
      <trkpt lat="44.59941" lon="5.53372">
        <ele>1119.03</ele>
        <time>2017-07-10T10:51:28.000Z</time>
      </trkpt>
      <trkpt lat="44.59932" lon="5.53356">
        <ele>1125.02</ele>
        <time>2017-07-10T10:51:38.000Z</time>
      </trkpt>
      <trkpt lat="44.59937" lon="5.53342">
        <ele>1128.69</ele>
        <time>2017-07-10T10:51:52.000Z</time>
      </trkpt>
      <trkpt lat="44.59938" lon="5.53327">
        <ele>1130.25</ele>
        <time>2017-07-10T10:52:22.000Z</time>
      </trkpt>
      <trkpt lat="44.59941" lon="5.53309">
        <ele>1126.31</ele>
        <time>2017-07-10T10:52:32.000Z</time>
      </trkpt>
      <trkpt lat="44.59948" lon="5.53301">
        <ele>1124.88</ele>
        <time>2017-07-10T10:52:48.000Z</time>
      </trkpt>
      <trkpt lat="44.59949" lon="5.53278">
        <ele>1123.85</ele>
        <time>2017-07-10T10:52:58.000Z</time>
      </trkpt>
      <trkpt lat="44.59942" lon="5.53268">
        <ele>1129.92</ele>
        <time>2017-07-10T10:53:08.000Z</time>
      </trkpt>
      <trkpt lat="44.59934" lon="5.53256">
        <ele>1132.19</ele>
        <time>2017-07-10T10:53:20.000Z</time>
      </trkpt>
      <trkpt lat="44.59938" lon="5.5324">
        <ele>1127.98</ele>
        <time>2017-07-10T10:53:30.000Z</time>
      </trkpt>
      <trkpt lat="44.59937" lon="5.53226">
        <ele>1124.2</ele>
        <time>2017-07-10T10:53:40.000Z</time>
      </trkpt>
      <trkpt lat="44.5994" lon="5.53214">
        <ele>1118.95</ele>
        <time>2017-07-10T10:54:13.000Z</time>
      </trkpt>
      <trkpt lat="44.59937" lon="5.53197">
        <ele>1116.99</ele>
        <time>2017-07-10T10:54:23.000Z</time>
      </trkpt>
      <trkpt lat="44.59937" lon="5.53183">
        <ele>1118.5</ele>
        <time>2017-07-10T10:54:33.000Z</time>
      </trkpt>
      <trkpt lat="44.59938" lon="5.5317">
        <ele>1115.74</ele>
        <time>2017-07-10T10:54:43.000Z</time>
      </trkpt>
      <trkpt lat="44.5993" lon="5.53158">
        <ele>1117.94</ele>
        <time>2017-07-10T10:54:53.000Z</time>
      </trkpt>
      <trkpt lat="44.59925" lon="5.53146">
        <ele>1123.02</ele>
        <time>2017-07-10T10:55:25.000Z</time>
      </trkpt>
      <trkpt lat="44.59915" lon="5.53138">
        <ele>1125.19</ele>
        <time>2017-07-10T10:55:35.000Z</time>
      </trkpt>
      <trkpt lat="44.59913" lon="5.53123">
        <ele>1122.27</ele>
        <time>2017-07-10T10:55:46.000Z</time>
      </trkpt>
      <trkpt lat="44.59903" lon="5.53119">
        <ele>1114.44</ele>
        <time>2017-07-10T10:56:01.000Z</time>
      </trkpt>
      <trkpt lat="44.59892" lon="5.53114">
        <ele>1112.82</ele>
        <time>2017-07-10T10:56:11.000Z</time>
      </trkpt>
      <trkpt lat="44.59881" lon="5.53104">
        <ele>1111.23</ele>
        <time>2017-07-10T10:56:21.000Z</time>
      </trkpt>
      <trkpt lat="44.59873" lon="5.53094">
        <ele>1108.11</ele>
        <time>2017-07-10T10:56:32.000Z</time>
      </trkpt>
      <trkpt lat="44.59862" lon="5.53086">
        <ele>1105.32</ele>
        <time>2017-07-10T10:56:42.000Z</time>
      </trkpt>
      <trkpt lat="44.59854" lon="5.5308">
        <ele>1105</ele>
        <time>2017-07-10T10:56:54.000Z</time>
      </trkpt>
      <trkpt lat="44.59848" lon="5.5307">
        <ele>1105.98</ele>
        <time>2017-07-10T10:57:09.000Z</time>
      </trkpt>
      <trkpt lat="44.59846" lon="5.53057">
        <ele>1104.27</ele>
        <time>2017-07-10T10:57:22.000Z</time>
      </trkpt>
      <trkpt lat="44.59837" lon="5.53049">
        <ele>1103.02</ele>
        <time>2017-07-10T10:57:32.000Z</time>
      </trkpt>
      <trkpt lat="44.5983" lon="5.5304">
        <ele>1102.01</ele>
        <time>2017-07-10T10:57:44.000Z</time>
      </trkpt>
      <trkpt lat="44.59824" lon="5.53026">
        <ele>1099.2</ele>
        <time>2017-07-10T10:57:56.000Z</time>
      </trkpt>
      <trkpt lat="44.59825" lon="5.53008">
        <ele>1092.46</ele>
        <time>2017-07-10T10:58:06.000Z</time>
      </trkpt>
      <trkpt lat="44.59833" lon="5.52996">
        <ele>1089.06</ele>
        <time>2017-07-10T10:58:16.000Z</time>
      </trkpt>
      <trkpt lat="44.59834" lon="5.52981">
        <ele>1092</ele>
        <time>2017-07-10T10:58:36.000Z</time>
      </trkpt>
      <trkpt lat="44.5984" lon="5.5297">
        <ele>1096.53</ele>
        <time>2017-07-10T10:58:47.000Z</time>
      </trkpt>
      <trkpt lat="44.59836" lon="5.52953">
        <ele>1098.03</ele>
        <time>2017-07-10T10:58:57.000Z</time>
      </trkpt>
      <trkpt lat="44.59828" lon="5.52945">
        <ele>1098.75</ele>
        <time>2017-07-10T10:59:26.000Z</time>
      </trkpt>
      <trkpt lat="44.59811" lon="5.52935">
        <ele>1100.01</ele>
        <time>2017-07-10T10:59:36.000Z</time>
      </trkpt>
      <trkpt lat="44.59804" lon="5.52927">
        <ele>1104.23</ele>
        <time>2017-07-10T10:59:49.000Z</time>
      </trkpt>
      <trkpt lat="44.59805" lon="5.52912">
        <ele>1100.95</ele>
        <time>2017-07-10T11:00:17.000Z</time>
      </trkpt>
      <trkpt lat="44.59805" lon="5.52864">
        <ele>1098.42</ele>
        <time>2017-07-10T11:00:27.000Z</time>
      </trkpt>
      <trkpt lat="44.59806" lon="5.52849">
        <ele>1091.87</ele>
        <time>2017-07-10T11:00:38.000Z</time>
      </trkpt>
      <trkpt lat="44.59803" lon="5.52837">
        <ele>1089.19</ele>
        <time>2017-07-10T11:00:48.000Z</time>
      </trkpt>
      <trkpt lat="44.59808" lon="5.52819">
        <ele>1090.92</ele>
        <time>2017-07-10T11:00:58.000Z</time>
      </trkpt>
      <trkpt lat="44.59811" lon="5.52806">
        <ele>1091.95</ele>
        <time>2017-07-10T11:01:08.000Z</time>
      </trkpt>
      <trkpt lat="44.59798" lon="5.52797">
        <ele>1092.25</ele>
        <time>2017-07-10T11:01:18.000Z</time>
      </trkpt>
      <trkpt lat="44.59786" lon="5.5279">
        <ele>1091.75</ele>
        <time>2017-07-10T11:01:28.000Z</time>
      </trkpt>
      <trkpt lat="44.59777" lon="5.52782">
        <ele>1094.17</ele>
        <time>2017-07-10T11:01:38.000Z</time>
      </trkpt>
      <trkpt lat="44.59767" lon="5.52779">
        <ele>1088.33</ele>
        <time>2017-07-10T11:01:54.000Z</time>
      </trkpt>
      <trkpt lat="44.59757" lon="5.52772">
        <ele>1085.25</ele>
        <time>2017-07-10T11:02:04.000Z</time>
      </trkpt>
      <trkpt lat="44.59745" lon="5.52761">
        <ele>1085.06</ele>
        <time>2017-07-10T11:02:14.000Z</time>
      </trkpt>
      <trkpt lat="44.59734" lon="5.52753">
        <ele>1084.33</ele>
        <time>2017-07-10T11:02:24.000Z</time>
      </trkpt>
      <trkpt lat="44.59733" lon="5.52739">
        <ele>1079.5</ele>
        <time>2017-07-10T11:02:34.000Z</time>
      </trkpt>
      <trkpt lat="44.59731" lon="5.5272">
        <ele>1080.45</ele>
        <time>2017-07-10T11:02:44.000Z</time>
      </trkpt>
      <trkpt lat="44.59746" lon="5.52718">
        <ele>1077.44</ele>
        <time>2017-07-10T11:02:54.186Z</time>
      </trkpt>
      <trkpt lat="44.59732" lon="5.52724">
        <ele>1077.24</ele>
        <time>2017-07-10T11:02:57.000Z</time>
      </trkpt>
    </trkseg>
  </trk>
</gpx>